Wetterdaten: Samstag, 14.05.2022
Datum Zeit Temp. Aussen Temp. o. S. Temp +5cm Feuchte Auss Luftdruck Regen Sonnenschein Regendauer Solar Windben Empfang
14.05.2022 00:00 14,8 C 13,9 C 10,6 C 75 % 1021,1 hPa 0,0 l/m 0 min 0 min 0 W/m 12,9 km/h (3 Bft) 97,87 %
14.05.2022 00:02 14,8 C 13,9 C 10,6 C 75 % 1021,0 hPa 0,0 l/m 0 min 0 min 0 W/m 6,4 km/h (2 Bft) 10,53 %
14.05.2022 00:04 14,7 C 13,9 C 10,6 C 76 % 1021,1 hPa 0,0 l/m 0 min 0 min 0 W/m 12,9 km/h (3 Bft) 90,91 %
14.05.2022 00:07 14,7 C 13,3 C 10,6 C 76 % 1021,1 hPa 0,0 l/m 0 min 0 min 0 W/m 19,3 km/h (3 Bft) 97,18 %
14.05.2022 00:08 14,7 C 13,3 C 10,6 C 76 % 1021,1 hPa 0,0 l/m 0 min 0 min 0 W/m 3,2 km/h (1 Bft) 100,00 %
14.05.2022 00:10 14,6 C 13,3 C 10,6 C 76 % 1021,1 hPa 0,0 l/m 0 min 0 min 0 W/m 3,2 km/h (1 Bft) 95,74 %
14.05.2022 00:12 14,6 C 13,3 C 10,6 C 76 % 1021,0 hPa 0,0 l/m 0 min 0 min 0 W/m 3,2 km/h (1 Bft) 97,87 %
14.05.2022 00:14 14,6 C 13,3 C 10,6 C 76 % 1021,1 hPa 0,0 l/m 0 min 0 min 0 W/m 3,2 km/h (1 Bft) 95,74 %
14.05.2022 00:16 14,5 C 13,3 C 10,0 C 76 % 1021,1 hPa 0,0 l/m 0 min 0 min 0 W/m 3,2 km/h (1 Bft) 97,87 %
14.05.2022 00:18 14,5 C 13,3 C 10,0 C 76 % 1021,1 hPa 0,0 l/m 0 min 0 min 0 W/m 3,2 km/h (1 Bft) 97,83 %
14.05.2022 00:20 14,4 C 13,3 C 10,0 C 76 % 1021,1 hPa 0,0 l/m 0 min 0 min 0 W/m 3,2 km/h (1 Bft) 97,87 %
14.05.2022 00:22 14,4 C 12,8 C 10,0 C 77 % 1021,0 hPa 0,0 l/m 0 min 0 min 0 W/m 3,2 km/h (1 Bft) 97,87 %
14.05.2022 00:24 14,3 C 12,8 C 10,0 C 77 % 1021,1 hPa 0,0 l/m 0 min 0 min 0 W/m 3,2 km/h (1 Bft) 97,87 %
14.05.2022 00:26 14,3 C 12,8 C 10,0 C 77 % 1021,1 hPa 0,0 l/m 0 min 0 min 0 W/m 3,2 km/h (1 Bft) 97,87 %
14.05.2022 00:28 14,3 C 12,8 C 10,0 C 77 % 1021,1 hPa 0,0 l/m 0 min 0 min 0 W/m 0,0 km/h (0 Bft) 97,83 %
14.05.2022 00:30 14,3 C 12,8 C 10,0 C 77 % 1021,1 hPa 0,0 l/m 0 min 0 min 0 W/m 0,0 km/h (0 Bft) 97,87 %
14.05.2022 00:32 14,3 C 12,8 C 9,4 C 78 % 1021,2 hPa 0,0 l/m 0 min 0 min 0 W/m 0,0 km/h (0 Bft) 95,74 %
14.05.2022 00:34 14,3 C 12,8 C 9,4 C 78 % 1021,2 hPa 0,0 l/m 0 min 0 min 0 W/m 0,0 km/h (0 Bft) 95,74 %
14.05.2022 00:36 14,2 C 12,2 C 9,4 C 78 % 1021,2 hPa 0,0 l/m 0 min 0 min 0 W/m 3,2 km/h (1 Bft) 95,74 %
14.05.2022 00:38 14,2 C 12,2 C 9,4 C 78 % 1021,2 hPa 0,0 l/m 0 min 0 min 0 W/m 0,0 km/h (0 Bft) 95,74 %
14.05.2022 00:40 14,1 C 12,2 C 9,4 C 79 % 1021,2 hPa 0,0 l/m 0 min 0 min 0 W/m 0,0 km/h (0 Bft) 91,30 %
14.05.2022 00:42 14,1 C 12,2 C 9,4 C 79 % 1021,1 hPa 0,0 l/m 0 min 0 min 0 W/m 0,0 km/h (0 Bft) 97,87 %
14.05.2022 00:44 14,0 C 12,2 C 9,4 C 79 % 1021,2 hPa 0,0 l/m 0 min 0 min 0 W/m 0,0 km/h (0 Bft) 97,87 %
14.05.2022 00:46 13,9 C 12,2 C 9,4 C 79 % 1021,2 hPa 0,0 l/m 0 min 0 min 0 W/m 0,0 km/h (0 Bft) 97,87 %
14.05.2022 00:48 13,8 C 12,2 C 9,4 C 79 % 1021,1 hPa 0,0 l/m 0 min 0 min 0 W/m 0,0 km/h (0 Bft) 97,87 %
14.05.2022 00:50 13,8 C 12,2 C 9,4 C 79 % 1021,2 hPa 0,0 l/m 0 min 0 min 0 W/m 0,0 km/h (0 Bft) 93,62 %
14.05.2022 00:52 13,7 C 12,2 C 9,4 C 79 % 1021,2 hPa 0,0 l/m 0 min 0 min 0 W/m 0,0 km/h (0 Bft) 97,87 %
14.05.2022 00:54 13,6 C 12,2 C 8,9 C 79 % 1021,2 hPa 0,0 l/m 0 min 0 min 0 W/m 0,0 km/h (0 Bft) 97,83 %
14.05.2022 00:56 13,6 C 12,2 C 8,9 C 80 % 1021,2 hPa 0,0 l/m 0 min 0 min 0 W/m 0,0 km/h (0 Bft) 97,87 %
14.05.2022 00:58 13,6 C 12,2 C 8,9 C 80 % 1021,2 hPa 0,0 l/m 0 min 0 min 0 W/m 0,0 km/h (0 Bft) 95,74 %
14.05.2022 01:00 13,5 C 12,2 C 8,9 C 81 % 1021,3 hPa 0,0 l/m 0 min 0 min 0 W/m 0,0 km/h (0 Bft) 93,62 %
14.05.2022 01:02 13,4 C 12,2 C 8,9 C 81 % 1021,2 hPa 0,0 l/m 0 min 0 min 0 W/m 0,0 km/h (0 Bft) 97,87 %
14.05.2022 01:04 13,4 C 11,7 C 8,9 C 81 % 1021,2 hPa 0,0 l/m 0 min 0 min 0 W/m 0,0 km/h (0 Bft) 100,00 %
14.05.2022 01:06 13,3 C 12,2 C 8,9 C 81 % 1021,2 hPa 0,0 l/m 0 min 0 min 0 W/m 6,4 km/h (2 Bft) 100,00 %
14.05.2022 01:08 13,3 C 12,2 C 8,9 C 81 % 1021,1 hPa 0,0 l/m 0 min 0 min 0 W/m 0,0 km/h (0 Bft) 97,87 %
14.05.2022 01:10 13,2 C 12,2 C 8,9 C 81 % 1021,2 hPa 0,0 l/m 0 min 0 min 0 W/m 0,0 km/h (0 Bft) 97,87 %
14.05.2022 01:12 13,2 C 11,7 C 8,9 C 81 % 1021,2 hPa 0,0 l/m 0 min 0 min 0 W/m 9,7 km/h (2 Bft) 100,00 %
14.05.2022 01:14 13,2 C 12,2 C 8,9 C 82 % 1021,1 hPa 0,0 l/m 0 min 0 min 0 W/m 3,2 km/h (1 Bft) 100,00 %
14.05.2022 01:16 13,1 C 12,2 C 8,9 C 82 % 1021,1 hPa 0,0 l/m 0 min 0 min 0 W/m 3,2 km/h (1 Bft) 97,87 %
14.05.2022 01:18 13,1 C 12,2 C 8,9 C 82 % 1021,1 hPa 0,0 l/m 0 min 0 min 0 W/m 3,2 km/h (1 Bft) 97,83 %
14.05.2022 01:20 13,1 C 11,7 C 8,9 C 82 % 1021,1 hPa 0,0 l/m 0 min 0 min 0 W/m 3,2 km/h (1 Bft) 97,87 %
14.05.2022 01:22 13,0 C 11,7 C 8,9 C 82 % 1021,1 hPa 0,0 l/m 0 min 0 min 0 W/m 3,2 km/h (1 Bft) 95,74 %
14.05.2022 01:24 13,0 C 11,7 C 8,9 C 82 % 1021,1 hPa 0,0 l/m 0 min 0 min 0 W/m 0,0 km/h (0 Bft) 97,87 %
14.05.2022 01:26 12,9 C 11,7 C 8,9 C 83 % 1021,1 hPa 0,0 l/m 0 min 0 min 0 W/m 0,0 km/h (0 Bft) 97,87 %
14.05.2022 01:28 12,9 C 11,7 C 8,9 C 83 % 1021,1 hPa 0,0 l/m 0 min 0 min 0 W/m 0,0 km/h (0 Bft) 97,83 %
14.05.2022 01:30 12,9 C 11,7 C 8,9 C 83 % 1021,1 hPa 0,0 l/m 0 min 0 min 0 W/m 0,0 km/h (0 Bft) 95,74 %
14.05.2022 01:32 12,9 C 11,7 C 8,9 C 83 % 1021,0 hPa 0,0 l/m 0 min 0 min 0 W/m 0,0 km/h (0 Bft) 97,87 %
14.05.2022 01:34 12,8 C 11,7 C 8,9 C 83 % 1021,1 hPa 0,0 l/m 0 min 0 min 0 W/m 3,2 km/h (1 Bft) 97,87 %
14.05.2022 01:36 12,8 C 11,7 C 8,9 C 83 % 1021,1 hPa 0,0 l/m 0 min 0 min 0 W/m 0,0 km/h (0 Bft) 97,87 %
14.05.2022 01:38 12,8 C 11,7 C 8,9 C 83 % 1021,1 hPa 0,0 l/m 0 min 0 min 0 W/m 0,0 km/h (0 Bft) 97,87 %
14.05.2022 01:40 12,8 C 11,7 C 8,3 C 83 % 1021,1 hPa 0,0 l/m 0 min 0 min 0 W/m 0,0 km/h (0 Bft) 97,83 %
14.05.2022 01:42 12,7 C 11,7 C 8,3 C 83 % 1021,1 hPa 0,0 l/m 0 min 0 min 0 W/m 0,0 km/h (0 Bft) 97,87 %
14.05.2022 01:44 12,7 C 11,7 C 8,3 C 83 % 1021,1 hPa 0,0 l/m 0 min 0 min 0 W/m 0,0 km/h (0 Bft) 97,87 %
14.05.2022 01:46 12,7 C 11,7 C 8,3 C 84 % 1021,1 hPa 0,0 l/m 0 min 0 min 0 W/m 0,0 km/h (0 Bft) 97,87 %
14.05.2022 01:48 12,6 C 11,7 C 8,3 C 84 % 1021,1 hPa 0,0 l/m 0 min 0 min 0 W/m 0,0 km/h (0 Bft) 97,87 %
14.05.2022 01:50 12,6 C 11,7 C 8,3 C 84 % 1021,1 hPa 0,0 l/m 0 min 0 min 0 W/m 0,0 km/h (0 Bft) 100,00 %
14.05.2022 01:52 12,6 C 11,7 C 8,3 C 84 % 1021,1 hPa 0,0 l/m 0 min 0 min 0 W/m 0,0 km/h (0 Bft) 97,87 %
14.05.2022 01:54 12,6 C 11,7 C 8,3 C 84 % 1021,1 hPa 0,0 l/m 0 min 0 min 0 W/m 0,0 km/h (0 Bft) 100,00 %
14.05.2022 01:56 12,6 C 11,1 C 8,3 C 84 % 1021,1 hPa 0,0 l/m 0 min 0 min 0 W/m 0,0 km/h (0 Bft) 100,00 %
14.05.2022 01:58 12,6 C 11,1 C 8,3 C 84 % 1021,2 hPa 0,0 l/m 0 min 0 min 0 W/m 0,0 km/h (0 Bft) 100,00 %
14.05.2022 02:00 12,5 C 11,1 C 8,3 C 84 % 1021,2 hPa 0,0 l/m 0 min 0 min 0 W/m 0,0 km/h (0 Bft) 100,00 %
14.05.2022 02:02 12,5 C 11,1 C 8,3 C 84 % 1021,2 hPa 0,0 l/m 0 min 0 min 0 W/m 0,0 km/h (0 Bft) 97,87 %
14.05.2022 02:04 12,4 C 11,1 C 8,3 C 84 % 1021,2 hPa 0,0 l/m 0 min 0 min 0 W/m 0,0 km/h (0 Bft) 100,00 %
14.05.2022 02:06 12,4 C 11,1 C 8,3 C 84 % 1021,2 hPa 0,0 l/m 0 min 0 min 0 W/m 0,0 km/h (0 Bft) 100,00 %
14.05.2022 02:08 12,4 C 11,1 C 7,8 C 85 % 1021,2 hPa 0,0 l/m 0 min 0 min 0 W/m 0,0 km/h (0 Bft) 100,00 %
14.05.2022 02:10 12,3 C 11,1 C 7,8 C 85 % 1021,2 hPa 0,0 l/m 0 min 0 min 0 W/m 0,0 km/h (0 Bft) 97,87 %
14.05.2022 02:12 12,3 C 10,6 C 7,8 C 85 % 1021,2 hPa 0,0 l/m 0 min 0 min 0 W/m 0,0 km/h (0 Bft) 97,87 %
14.05.2022 02:14 12,3 C 10,6 C 7,8 C 85 % 1021,2 hPa 0,0 l/m 0 min 0 min 0 W/m 0,0 km/h (0 Bft) 95,74 %
14.05.2022 02:16 12,2 C 10,6 C 7,8 C 85 % 1021,1 hPa 0,0 l/m 0 min 0 min 0 W/m 3,2 km/h (1 Bft) 97,83 %
14.05.2022 02:18 12,2 C 10,6 C 7,8 C 85 % 1021,2 hPa 0,0 l/m 0 min 0 min 0 W/m 0,0 km/h (0 Bft) 97,87 %
14.05.2022 02:20 12,1 C 10,6 C 7,8 C 85 % 1021,2 hPa 0,0 l/m 0 min 0 min 0 W/m 0,0 km/h (0 Bft) 97,87 %
14.05.2022 02:22 12,1 C 10,6 C 7,8 C 85 % 1021,2 hPa 0,0 l/m 0 min 0 min 0 W/m 0,0 km/h (0 Bft) 97,87 %
14.05.2022 02:24 12,1 C 10,6 C 7,8 C 85 % 1021,2 hPa 0,0 l/m 0 min 0 min 0 W/m 0,0 km/h (0 Bft) 97,87 %
14.05.2022 02:26 12,0 C 10,6 C 7,8 C 86 % 1021,2 hPa 0,0 l/m 0 min 0 min 0 W/m 0,0 km/h (0 Bft) 97,87 %
14.05.2022 02:28 12,0 C 10,6 C 7,8 C 86 % 1021,2 hPa 0,0 l/m 0 min 0 min 0 W/m 0,0 km/h (0 Bft) 97,83 %
14.05.2022 02:30 11,9 C 10,6 C 7,8 C 85 % 1021,1 hPa 0,0 l/m 0 min 0 min 0 W/m 0,0 km/h (0 Bft) 95,74 %
14.05.2022 02:32 11,9 C 10,6 C 7,8 C 86 % 1021,1 hPa 0,0 l/m 0 min 0 min 0 W/m 0,0 km/h (0 Bft) 97,87 %
14.05.2022 02:34 11,9 C 10,6 C 7,8 C 86 % 1021,1 hPa 0,0 l/m 0 min 0 min 0 W/m 0,0 km/h (0 Bft) 95,74 %
14.05.2022 02:36 11,9 C 10,6 C 7,8 C 86 % 1021,1 hPa 0,0 l/m 0 min 0 min 0 W/m 0,0 km/h (0 Bft) 97,87 %
14.05.2022 02:38 11,9 C 10,6 C 7,8 C 86 % 1021,1 hPa 0,0 l/m 0 min 0 min 0 W/m 3,2 km/h (1 Bft) 100,00 %
14.05.2022 02:40 11,8 C 10,6 C 7,8 C 86 % 1021,1 hPa 0,0 l/m 0 min 0 min 0 W/m 0,0 km/h (0 Bft) 100,00 %
14.05.2022 02:42 11,8 C 10,6 C 7,8 C 86 % 1021,1 hPa 0,0 l/m 0 min 0 min 0 W/m 0,0 km/h (0 Bft) 100,00 %
14.05.2022 02:44 11,8 C 10,6 C 7,8 C 86 % 1021,1 hPa 0,0 l/m 0 min 0 min 0 W/m 0,0 km/h (0 Bft) 97,87 %
14.05.2022 02:46 11,8 C 10,6 C 7,8 C 86 % 1021,1 hPa 0,0 l/m 0 min 0 min 0 W/m 0,0 km/h (0 Bft) 97,87 %
14.05.2022 02:48 11,8 C 10,6 C 7,8 C 86 % 1021,0 hPa 0,0 l/m 0 min 0 min 0 W/m 0,0 km/h (0 Bft) 97,87 %
14.05.2022 02:50 11,8 C 10,6 C 7,8 C 86 % 1021,0 hPa 0,0 l/m 0 min 0 min 0 W/m 0,0 km/h (0 Bft) 100,00 %
14.05.2022 02:52 11,8 C 10,6 C 7,8 C 86 % 1021,1 hPa 0,0 l/m 0 min 0 min 0 W/m 0,0 km/h (0 Bft) 100,00 %
14.05.2022 02:54 11,8 C 10,6 C 7,8 C 86 % 1021,1 hPa 0,0 l/m 0 min 0 min 0 W/m 0,0 km/h (0 Bft) 100,00 %
14.05.2022 02:56 11,7 C 10,6 C 7,8 C 86 % 1021,1 hPa 0,0 l/m 0 min 0 min 0 W/m 0,0 km/h (0 Bft) 100,00 %
14.05.2022 02:58 11,7 C 10,6 C 7,8 C 86 % 1021,1 hPa 0,0 l/m 0 min 0 min 0 W/m 6,4 km/h (2 Bft) 100,00 %
14.05.2022 03:00 11,7 C 10,6 C 7,8 C 86 % 1021,1 hPa 0,0 l/m 0 min 0 min 0 W/m 3,2 km/h (1 Bft) 100,00 %
14.05.2022 03:02 11,7 C 10,6 C 7,8 C 86 % 1021,1 hPa 0,0 l/m 0 min 0 min 0 W/m 3,2 km/h (1 Bft) 100,00 %
14.05.2022 03:04 11,7 C 10,6 C 7,8 C 86 % 1021,0 hPa 0,0 l/m 0 min 0 min 0 W/m 3,2 km/h (1 Bft) 100,00 %
14.05.2022 03:06 11,7 C 11,1 C 7,8 C 86 % 1021,1 hPa 0,0 l/m 0 min 0 min 0 W/m 3,2 km/h (1 Bft) 100,00 %
14.05.2022 03:08 11,7 C 10,6 C 7,8 C 86 % 1021,0 hPa 0,0 l/m 0 min 0 min 0 W/m 0,0 km/h (0 Bft) 100,00 %
14.05.2022 03:10 11,7 C 10,6 C 7,8 C 86 % 1021,1 hPa 0,0 l/m 0 min 0 min 0 W/m 0,0 km/h (0 Bft) 93,62 %
14.05.2022 03:12 11,7 C 10,6 C 7,8 C 86 % 1021,0 hPa 0,0 l/m 0 min 0 min 0 W/m 3,2 km/h (1 Bft) 100,00 %
14.05.2022 03:14 11,7 C 10,6 C 7,8 C 86 % 1021,0 hPa 0,0 l/m 0 min 0 min 0 W/m 0,0 km/h (0 Bft) 100,00 %
14.05.2022 03:16 11,7 C 10,6 C 7,8 C 86 % 1021,0 hPa 0,0 l/m 0 min 0 min 0 W/m 0,0 km/h (0 Bft) 97,83 %
14.05.2022 03:18 11,7 C 10,6 C 7,8 C 86 % 1021,1 hPa 0,0 l/m 0 min 0 min 0 W/m 0,0 km/h (0 Bft) 100,00 %
14.05.2022 03:20 11,7 C 10,6 C 7,8 C 86 % 1021,1 hPa 0,0 l/m 0 min 0 min 0 W/m 0,0 km/h (0 Bft) 96,43 %
14.05.2022 03:22 11,7 C 10,6 C 7,8 C 86 % 1021,1 hPa 0,0 l/m 0 min 0 min 0 W/m 3,2 km/h (1 Bft) 96,00 %
14.05.2022 03:24 11,6 C 10,6 C 7,8 C 86 % 1021,1 hPa 0,0 l/m 0 min 0 min 0 W/m 3,2 km/h (1 Bft) 97,87 %
14.05.2022 03:26 11,6 C 10,6 C 7,8 C 86 % 1021,1 hPa 0,0 l/m 0 min 0 min 0 W/m 3,2 km/h (1 Bft) 97,87 %
14.05.2022 03:28 11,6 C 10,6 C 7,8 C 86 % 1021,1 hPa 0,0 l/m 0 min 0 min 0 W/m 3,2 km/h (1 Bft) 97,83 %
14.05.2022 03:30 11,6 C 10,6 C 7,8 C 86 % 1021,1 hPa 0,0 l/m 0 min 0 min 0 W/m 3,2 km/h (1 Bft) 97,14 %
14.05.2022 03:32 11,6 C 10,6 C 7,8 C 86 % 1021,1 hPa 0,0 l/m 0 min 0 min 0 W/m 3,2 km/h (1 Bft) 96,43 %
14.05.2022 03:34 11,6 C 10,6 C 7,8 C 86 % 1021,1 hPa 0,0 l/m 0 min 0 min 0 W/m 3,2 km/h (1 Bft) 95,74 %
14.05.2022 03:36 11,6 C 11,1 C 7,8 C 85 % 1021,1 hPa 0,0 l/m 0 min 0 min 0 W/m 6,4 km/h (2 Bft) 93,62 %
14.05.2022 03:38 11,6 C 10,6 C 7,8 C 85 % 1021,1 hPa 0,0 l/m 0 min 0 min 0 W/m 3,2 km/h (1 Bft) 95,74 %
14.05.2022 03:40 11,5 C 10,6 C 7,8 C 85 % 1021,1 hPa 0,0 l/m 0 min 0 min 0 W/m 3,2 km/h (1 Bft) 93,48 %
14.05.2022 03:42 11,5 C 10,6 C 7,8 C 85 % 1021,1 hPa 0,0 l/m 0 min 0 min 0 W/m 3,2 km/h (1 Bft) 93,62 %
14.05.2022 03:44 11,5 C 10,6 C 7,8 C 85 % 1021,1 hPa 0,0 l/m 0 min 0 min 0 W/m 3,2 km/h (1 Bft) 93,62 %
14.05.2022 03:46 11,5 C 10,6 C 7,8 C 85 % 1021,1 hPa 0,0 l/m 0 min 0 min 0 W/m 3,2 km/h (1 Bft) 93,62 %
14.05.2022 03:48 11,5 C 11,1 C 7,8 C 85 % 1021,1 hPa 0,0 l/m 0 min 0 min 0 W/m 3,2 km/h (1 Bft) 91,49 %
14.05.2022 03:50 11,5 C 10,6 C 7,8 C 85 % 1021,0 hPa 0,0 l/m 0 min 0 min 0 W/m 6,4 km/h (2 Bft) 93,62 %
14.05.2022 03:52 11,5 C 10,6 C 7,8 C 85 % 1021,1 hPa 0,0 l/m 0 min 0 min 0 W/m 3,2 km/h (1 Bft) 93,48 %
14.05.2022 03:54 11,5 C 10,6 C 7,8 C 85 % 1021,1 hPa 0,0 l/m 0 min 0 min 0 W/m 6,4 km/h (2 Bft) 95,74 %
14.05.2022 03:56 11,5 C 10,6 C 7,8 C 84 % 1021,1 hPa 0,0 l/m 0 min 0 min 0 W/m 3,2 km/h (1 Bft) 93,62 %
14.05.2022 03:58 11,4 C 10,6 C 7,8 C 84 % 1021,1 hPa 0,0 l/m 0 min 0 min 0 W/m 3,2 km/h (1 Bft) 95,74 %
14.05.2022 04:00 11,4 C 10,6 C 7,8 C 85 % 1021,1 hPa 0,0 l/m 0 min 0 min 0 W/m 3,2 km/h (1 Bft) 95,74 %
14.05.2022 04:02 11,4 C 10,6 C 7,8 C 84 % 1021,1 hPa 0,0 l/m 0 min 0 min 0 W/m 0,0 km/h (0 Bft) 100,00 %
14.05.2022 04:04 11,4 C 10,6 C 7,8 C 84 % 1021,1 hPa 0,0 l/m 0 min 0 min 0 W/m 3,2 km/h (1 Bft) 97,83 %
14.05.2022 04:06 11,4 C 10,6 C 7,8 C 84 % 1021,1 hPa 0,0 l/m 0 min 0 min 0 W/m 3,2 km/h (1 Bft) 97,87 %
14.05.2022 04:08 11,4 C 10,6 C 7,8 C 84 % 1021,1 hPa 0,0 l/m 0 min 0 min 0 W/m 3,2 km/h (1 Bft) 97,87 %
14.05.2022 04:13 11,4 C 10,6 C 7,8 C 84 % 1021,1 hPa 0,0 l/m 0 min 0 min 0 W/m 3,2 km/h (1 Bft) 97,10 %
14.05.2022 04:14 11,4 C 10,6 C 7,8 C 84 % 1021,1 hPa 0,0 l/m 0 min 0 min 0 W/m 0,0 km/h (0 Bft) 100,00 %
14.05.2022 04:16 11,4 C 10,6 C 7,8 C 84 % 1021,1 hPa 0,0 l/m 0 min 0 min 0 W/m 3,2 km/h (1 Bft) 95,92 %
14.05.2022 04:18 11,4 C 10,6 C 7,8 C 84 % 1021,1 hPa 0,0 l/m 0 min 0 min 0 W/m 3,2 km/h (1 Bft) 95,74 %
14.05.2022 04:20 11,3 C 10,6 C 7,8 C 84 % 1021,1 hPa 0,0 l/m 0 min 0 min 0 W/m 3,2 km/h (1 Bft) 97,87 %
14.05.2022 04:22 11,3 C 10,6 C 7,2 C 84 % 1021,1 hPa 0,0 l/m 0 min 0 min 0 W/m 3,2 km/h (1 Bft) 95,74 %
14.05.2022 04:24 11,3 C 10,6 C 7,8 C 84 % 1021,1 hPa 0,0 l/m 0 min 0 min 0 W/m 3,2 km/h (1 Bft) 97,87 %
14.05.2022 04:26 11,3 C 10,6 C 7,8 C 84 % 1021,1 hPa 0,0 l/m 0 min 0 min 0 W/m 0,0 km/h (0 Bft) 97,14 %
14.05.2022 04:28 11,3 C 10,6 C 7,8 C 83 % 1021,1 hPa 0,0 l/m 0 min 0 min 0 W/m 3,2 km/h (1 Bft) 97,87 %
14.05.2022 04:30 11,3 C 10,6 C 7,8 C 83 % 1021,1 hPa 0,0 l/m 0 min 0 min 0 W/m 3,2 km/h (1 Bft) 97,83 %
14.05.2022 04:32 11,3 C 10,6 C 7,8 C 83 % 1021,1 hPa 0,0 l/m 0 min 0 min 0 W/m 3,2 km/h (1 Bft) 97,87 %
14.05.2022 04:34 11,3 C 10,6 C 7,8 C 83 % 1021,1 hPa 0,0 l/m 0 min 0 min 0 W/m 3,2 km/h (1 Bft) 97,87 %
14.05.2022 04:36 11,3 C 10,6 C 7,8 C 83 % 1021,2 hPa 0,0 l/m 0 min 0 min 0 W/m 3,2 km/h (1 Bft) 96,61 %
14.05.2022 04:38 11,3 C 10,6 C 7,8 C 83 % 1021,2 hPa 0,0 l/m 0 min 0 min 0 W/m 3,2 km/h (1 Bft) 100,00 %
14.05.2022 04:40 11,3 C 10,6 C 7,2 C 83 % 1021,2 hPa 0,0 l/m 0 min 0 min 0 W/m 3,2 km/h (1 Bft) 100,00 %
14.05.2022 04:42 11,2 C 10,6 C 7,2 C 83 % 1021,1 hPa 0,0 l/m 0 min 0 min 0 W/m 6,4 km/h (2 Bft) 97,83 %
14.05.2022 04:44 11,2 C 10,6 C 7,2 C 83 % 1021,2 hPa 0,0 l/m 0 min 0 min 0 W/m 3,2 km/h (1 Bft) 100,00 %
14.05.2022 04:46 11,2 C 10,0 C 7,2 C 83 % 1021,2 hPa 0,0 l/m 0 min 0 min 0 W/m 3,2 km/h (1 Bft) 100,00 %
14.05.2022 04:48 11,2 C 10,0 C 7,2 C 83 % 1021,2 hPa 0,0 l/m 0 min 0 min 0 W/m 3,2 km/h (1 Bft) 100,00 %
14.05.2022 04:50 11,1 C 10,0 C 7,2 C 83 % 1021,3 hPa 0,0 l/m 0 min 0 min 0 W/m 3,2 km/h (1 Bft) 97,87 %
14.05.2022 04:52 11,1 C 10,0 C 7,2 C 83 % 1021,3 hPa 0,0 l/m 0 min 0 min 0 W/m 3,2 km/h (1 Bft) 97,87 %
14.05.2022 04:54 11,1 C 10,0 C 7,2 C 83 % 1021,2 hPa 0,0 l/m 0 min 0 min 0 W/m 3,2 km/h (1 Bft) 100,00 %
14.05.2022 04:56 11,1 C 10,0 C 7,2 C 83 % 1021,2 hPa 0,0 l/m 0 min 0 min 0 W/m 3,2 km/h (1 Bft) 100,00 %
14.05.2022 04:58 11,1 C 10,0 C 7,2 C 83 % 1021,2 hPa 0,0 l/m 0 min 0 min 0 W/m 3,2 km/h (1 Bft) 100,00 %
14.05.2022 05:00 11,1 C 10,0 C 7,2 C 83 % 1021,2 hPa 0,0 l/m 0 min 0 min 0 W/m 3,2 km/h (1 Bft) 100,00 %
14.05.2022 05:02 11,0 C 10,0 C 7,2 C 83 % 1021,2 hPa 0,0 l/m 0 min 0 min 0 W/m 6,4 km/h (2 Bft) 100,00 %
14.05.2022 05:04 11,0 C 10,0 C 7,2 C 83 % 1021,2 hPa 0,0 l/m 0 min 0 min 0 W/m 6,4 km/h (2 Bft) 100,00 %
14.05.2022 05:06 10,9 C 10,0 C 7,2 C 83 % 1021,3 hPa 0,0 l/m 0 min 0 min 0 W/m 6,4 km/h (2 Bft) 100,00 %
14.05.2022 05:08 10,9 C 10,0 C 7,2 C 83 % 1021,3 hPa 0,0 l/m 0 min 0 min 0 W/m 3,2 km/h (1 Bft) 95,74 %
14.05.2022 05:10 10,9 C 10,0 C 7,2 C 83 % 1021,2 hPa 0,0 l/m 0 min 0 min 0 W/m 0,0 km/h (0 Bft) 100,00 %
14.05.2022 05:12 10,9 C 10,0 C 7,2 C 83 % 1021,2 hPa 0,0 l/m 0 min 0 min 0 W/m 6,4 km/h (2 Bft) 100,00 %
14.05.2022 05:14 10,9 C 10,0 C 7,2 C 83 % 1021,2 hPa 0,0 l/m 0 min 0 min 0 W/m 6,4 km/h (2 Bft) 97,87 %
14.05.2022 05:16 10,9 C 10,0 C 7,2 C 83 % 1021,2 hPa 0,0 l/m 0 min 0 min 0 W/m 3,2 km/h (1 Bft) 100,00 %
14.05.2022 05:18 10,8 C 10,0 C 7,2 C 83 % 1021,2 hPa 0,0 l/m 0 min 0 min 0 W/m 9,7 km/h (2 Bft) 97,83 %
14.05.2022 05:20 10,8 C 10,0 C 7,2 C 83 % 1021,2 hPa 0,0 l/m 0 min 0 min 0 W/m 6,4 km/h (2 Bft) 100,00 %
14.05.2022 05:22 10,8 C 10,0 C 7,2 C 83 % 1021,2 hPa 0,0 l/m 0 min 0 min 0 W/m 3,2 km/h (1 Bft) 97,87 %
14.05.2022 05:25 10,7 C 10,0 C 7,2 C 83 % 1021,2 hPa 0,0 l/m 0 min 0 min 0 W/m 6,4 km/h (2 Bft) 97,56 %
14.05.2022 05:26 10,7 C 10,0 C 7,2 C 83 % 1021,2 hPa 0,0 l/m 0 min 0 min 0 W/m 0,0 km/h (0 Bft) 100,00 %
14.05.2022 05:28 10,7 C 10,0 C 7,2 C 83 % 1021,1 hPa 0,0 l/m 0 min 0 min 0 W/m 3,2 km/h (1 Bft) 95,74 %
14.05.2022 05:30 10,7 C 10,0 C 7,2 C 83 % 1021,1 hPa 0,0 l/m 0 min 0 min 0 W/m 6,4 km/h (2 Bft) 95,65 %
14.05.2022 05:32 10,7 C 10,0 C 7,2 C 83 % 1021,1 hPa 0,0 l/m 0 min 0 min 0 W/m 6,4 km/h (2 Bft) 95,74 %
14.05.2022 05:34 10,7 C 10,0 C 7,2 C 83 % 1021,2 hPa 0,0 l/m 0 min 0 min 0 W/m 3,2 km/h (1 Bft) 95,74 %
14.05.2022 05:36 10,7 C 10,0 C 7,2 C 83 % 1021,1 hPa 0,0 l/m 0 min 0 min 0 W/m 3,2 km/h (1 Bft) 94,34 %
14.05.2022 05:38 10,7 C 10,0 C 7,2 C 84 % 1021,1 hPa 0,0 l/m 0 min 0 min 0 W/m 3,2 km/h (1 Bft) 95,74 %
14.05.2022 05:40 10,7 C 10,0 C 7,2 C 84 % 1021,1 hPa 0,0 l/m 0 min 0 min 0 W/m 0,0 km/h (0 Bft) 95,65 %
14.05.2022 05:42 10,7 C 10,0 C 7,2 C 84 % 1021,1 hPa 0,0 l/m 0 min 0 min 0 W/m 3,2 km/h (1 Bft) 95,74 %
14.05.2022 05:44 10,7 C 10,0 C 7,2 C 84 % 1021,0 hPa 0,0 l/m 0 min 0 min 0 W/m 3,2 km/h (1 Bft) 95,74 %
14.05.2022 05:46 10,7 C 10,0 C 7,2 C 84 % 1021,1 hPa 0,0 l/m 0 min 0 min 4 W/m 6,4 km/h (2 Bft) 95,12 %
14.05.2022 05:48 10,7 C 10,0 C 7,2 C 84 % 1021,1 hPa 0,0 l/m 0 min 0 min 5 W/m 3,2 km/h (1 Bft) 93,62 %
14.05.2022 05:50 10,6 C 10,0 C 7,2 C 84 % 1021,1 hPa 0,0 l/m 0 min 0 min 5 W/m 3,2 km/h (1 Bft) 95,74 %
14.05.2022 05:52 10,6 C 10,0 C 7,2 C 84 % 1021,2 hPa 0,0 l/m 0 min 0 min 7 W/m 3,2 km/h (1 Bft) 95,74 %
14.05.2022 05:54 10,6 C 10,0 C 6,7 C 84 % 1021,2 hPa 0,0 l/m 0 min 0 min 7 W/m 6,4 km/h (2 Bft) 97,83 %
14.05.2022 05:56 10,6 C 10,0 C 7,2 C 84 % 1021,2 hPa 0,0 l/m 0 min 0 min 9 W/m 3,2 km/h (1 Bft) 97,87 %
14.05.2022 05:58 10,6 C 10,0 C 7,2 C 84 % 1021,2 hPa 0,0 l/m 0 min 0 min 10 W/m 9,7 km/h (2 Bft) 97,87 %
14.05.2022 06:00 10,6 C 10,0 C 7,2 C 84 % 1021,2 hPa 0,0 l/m 0 min 0 min 11 W/m 9,7 km/h (2 Bft) 97,87 %
14.05.2022 06:02 10,6 C 10,0 C 7,2 C 84 % 1021,2 hPa 0,0 l/m 0 min 0 min 11 W/m 3,2 km/h (1 Bft) 95,74 %
14.05.2022 06:04 10,6 C 10,0 C 7,2 C 84 % 1021,2 hPa 0,0 l/m 0 min 0 min 12 W/m 6,4 km/h (2 Bft) 96,36 %
14.05.2022 06:07 10,6 C 10,0 C 7,2 C 84 % 1021,2 hPa 0,0 l/m 0 min 0 min 13 W/m 3,2 km/h (1 Bft) 98,63 %
14.05.2022 06:08 10,6 C 10,0 C 7,2 C 84 % 1021,2 hPa 0,0 l/m 0 min 0 min 14 W/m 9,7 km/h (2 Bft) 95,65 %
14.05.2022 06:10 10,5 C 10,0 C 7,2 C 84 % 1021,2 hPa 0,0 l/m 0 min 0 min 14 W/m 3,2 km/h (1 Bft) 100,00 %
14.05.2022 06:12 10,6 C 10,0 C 6,7 C 84 % 1021,2 hPa 0,0 l/m 0 min 0 min 15 W/m 0,0 km/h (0 Bft) 100,00 %
14.05.2022 06:14 10,6 C 10,0 C 6,7 C 84 % 1021,3 hPa 0,0 l/m 0 min 0 min 16 W/m 3,2 km/h (1 Bft) 100,00 %
14.05.2022 06:16 10,6 C 10,0 C 6,7 C 84 % 1021,4 hPa 0,0 l/m 0 min 0 min 18 W/m 3,2 km/h (1 Bft) 100,00 %
14.05.2022 06:18 10,6 C 10,0 C 6,7 C 84 % 1021,4 hPa 0,0 l/m 0 min 0 min 18 W/m 3,2 km/h (1 Bft) 100,00 %
14.05.2022 06:20 10,6 C 10,0 C 6,7 C 84 % 1021,4 hPa 0,0 l/m 0 min 0 min 18 W/m 3,2 km/h (1 Bft) 100,00 %
14.05.2022 06:22 10,6 C 10,0 C 6,7 C 84 % 1021,4 hPa 0,0 l/m 0 min 0 min 19 W/m 3,2 km/h (1 Bft) 100,00 %
14.05.2022 06:26 10,6 C 10,0 C 7,2 C 84 % 1021,3 hPa 0,0 l/m 0 min 0 min 21 W/m 3,2 km/h (1 Bft) 100,00 %
14.05.2022 06:28 10,5 C 10,0 C 7,2 C 84 % 1021,3 hPa 0,0 l/m 0 min 0 min 23 W/m 3,2 km/h (1 Bft) 100,00 %
14.05.2022 06:30 10,6 C 10,0 C 7,2 C 84 % 1021,3 hPa 0,0 l/m 0 min 0 min 23 W/m 3,2 km/h (1 Bft) 100,00 %
14.05.2022 06:32 10,6 C 10,0 C 7,2 C 84 % 1021,3 hPa 0,0 l/m 0 min 0 min 23 W/m 3,2 km/h (1 Bft) 100,00 %
14.05.2022 06:34 10,6 C 10,0 C 7,2 C 84 % 1021,3 hPa 0,0 l/m 0 min 0 min 25 W/m 3,2 km/h (1 Bft) 100,00 %
14.05.2022 06:36 10,5 C 10,0 C 7,2 C 84 % 1021,3 hPa 0,0 l/m 0 min 0 min 25 W/m 3,2 km/h (1 Bft) 97,87 %
14.05.2022 06:38 10,5 C 10,0 C 7,2 C 84 % 1021,4 hPa 0,0 l/m 0 min 0 min 26 W/m 3,2 km/h (1 Bft) 100,00 %
14.05.2022 06:40 10,5 C 10,0 C 7,2 C 84 % 1021,4 hPa 0,0 l/m 0 min 0 min 26 W/m 6,4 km/h (2 Bft) 100,00 %
14.05.2022 06:42 10,6 C 10,0 C 7,2 C 84 % 1021,5 hPa 0,0 l/m 0 min 0 min 27 W/m 6,4 km/h (2 Bft) 100,00 %
14.05.2022 06:44 10,6 C 10,0 C 7,2 C 84 % 1021,5 hPa 0,0 l/m 0 min 0 min 28 W/m 3,2 km/h (1 Bft) 97,83 %
14.05.2022 06:46 10,6 C 10,0 C 7,2 C 84 % 1021,5 hPa 0,0 l/m 0 min 0 min 28 W/m 3,2 km/h (1 Bft) 100,00 %
14.05.2022 06:48 10,6 C 10,0 C 7,2 C 84 % 1021,5 hPa 0,0 l/m 0 min 0 min 26 W/m 3,2 km/h (1 Bft) 100,00 %
14.05.2022 06:50 10,5 C 10,0 C 7,2 C 84 % 1021,5 hPa 0,0 l/m 0 min 0 min 27 W/m 3,2 km/h (1 Bft) 100,00 %
14.05.2022 06:52 10,6 C 10,0 C 7,2 C 84 % 1021,5 hPa 0,0 l/m 0 min 0 min 28 W/m 3,2 km/h (1 Bft) 100,00 %
14.05.2022 06:54 10,5 C 10,0 C 7,2 C 84 % 1021,4 hPa 0,0 l/m 0 min 0 min 26 W/m 6,4 km/h (2 Bft) 100,00 %
14.05.2022 06:56 10,5 C 10,0 C 7,2 C 84 % 1021,5 hPa 0,0 l/m 0 min 0 min 27 W/m 6,4 km/h (2 Bft) 100,00 %
14.05.2022 06:58 10,5 C 10,0 C 7,2 C 84 % 1021,5 hPa 0,0 l/m 0 min 0 min 28 W/m 9,7 km/h (2 Bft) 100,00 %
14.05.2022 07:00 10,5 C 10,0 C 7,2 C 84 % 1021,5 hPa 0,0 l/m 0 min 0 min 29 W/m 9,7 km/h (2 Bft) 100,00 %
14.05.2022 07:02 10,5 C 10,0 C 7,2 C 84 % 1021,5 hPa 0,0 l/m 0 min 0 min 28 W/m 9,7 km/h (2 Bft) 100,00 %
14.05.2022 07:04 10,5 C 10,0 C 7,2 C 84 % 1021,5 hPa 0,0 l/m 0 min 0 min 28 W/m 3,2 km/h (1 Bft) 97,87 %
14.05.2022 07:06 10,5 C 10,0 C 7,2 C 84 % 1021,5 hPa 0,0 l/m 0 min 0 min 29 W/m 6,4 km/h (2 Bft) 97,87 %
14.05.2022 07:08 10,5 C 10,0 C 7,2 C 84 % 1021,5 hPa 0,0 l/m 0 min 0 min 32 W/m 12,9 km/h (3 Bft) 97,83 %
14.05.2022 07:10 10,5 C 10,0 C 7,2 C 84 % 1021,6 hPa 0,0 l/m 0 min 0 min 33 W/m 9,7 km/h (2 Bft) 97,87 %
14.05.2022 07:12 10,6 C 10,0 C 7,2 C 84 % 1021,6 hPa 0,0 l/m 0 min 0 min 34 W/m 3,2 km/h (1 Bft) 95,74 %
14.05.2022 07:14 10,6 C 10,0 C 7,2 C 84 % 1021,6 hPa 0,0 l/m 0 min 0 min 33 W/m 3,2 km/h (1 Bft) 95,74 %
14.05.2022 07:16 10,6 C 10,0 C 7,2 C 84 % 1021,7 hPa 0,0 l/m 0 min 0 min 33 W/m 3,2 km/h (1 Bft) 93,62 %
14.05.2022 07:18 10,6 C 10,0 C 7,2 C 84 % 1021,6 hPa 0,0 l/m 0 min 0 min 33 W/m 3,2 km/h (1 Bft) 93,62 %
14.05.2022 07:20 10,6 C 10,0 C 7,2 C 84 % 1021,6 hPa 0,0 l/m 0 min 0 min 35 W/m 3,2 km/h (1 Bft) 95,65 %
14.05.2022 07:22 10,7 C 10,6 C 7,2 C 84 % 1021,7 hPa 0,0 l/m 0 min 0 min 37 W/m 3,2 km/h (1 Bft) 95,74 %
14.05.2022 07:24 10,7 C 10,6 C 7,2 C 84 % 1021,7 hPa 0,0 l/m 0 min 0 min 38 W/m 6,4 km/h (2 Bft) 95,74 %
14.05.2022 07:26 10,7 C 10,6 C 7,2 C 84 % 1021,7 hPa 0,0 l/m 0 min 0 min 40 W/m 3,2 km/h (1 Bft) 95,74 %
14.05.2022 07:28 10,7 C 10,6 C 7,2 C 84 % 1021,7 hPa 0,0 l/m 0 min 0 min 44 W/m 3,2 km/h (1 Bft) 93,62 %
14.05.2022 07:30 10,8 C 10,6 C 7,2 C 84 % 1021,8 hPa 0,0 l/m 0 min 0 min 47 W/m 6,4 km/h (2 Bft) 93,62 %
14.05.2022 07:32 10,8 C 10,6 C 7,2 C 84 % 1021,8 hPa 0,0 l/m 0 min 0 min 49 W/m 6,4 km/h (2 Bft) 95,65 %
14.05.2022 07:34 10,8 C 10,6 C 7,8 C 83 % 1021,8 hPa 0,0 l/m 0 min 0 min 50 W/m 3,2 km/h (1 Bft) 97,87 %
14.05.2022 07:36 10,9 C 10,6 C 7,8 C 83 % 1021,8 hPa 0,0 l/m 0 min 0 min 49 W/m 6,4 km/h (2 Bft) 97,87 %
14.05.2022 07:38 10,9 C 10,6 C 7,8 C 83 % 1021,8 hPa 0,0 l/m 0 min 0 min 51 W/m 3,2 km/h (1 Bft) 97,87 %
14.05.2022 07:40 11,0 C 10,6 C 7,8 C 83 % 1021,8 hPa 0,0 l/m 0 min 0 min 51 W/m 6,4 km/h (2 Bft) 93,62 %
14.05.2022 07:42 11,0 C 10,6 C 7,8 C 83 % 1021,8 hPa 0,0 l/m 0 min 0 min 53 W/m 0,0 km/h (0 Bft) 95,74 %
14.05.2022 07:44 11,1 C 10,6 C 7,8 C 83 % 1021,9 hPa 0,0 l/m 0 min 0 min 54 W/m 12,9 km/h (3 Bft) 97,83 %
14.05.2022 07:46 11,1 C 11,1 C 7,8 C 83 % 1021,8 hPa 0,0 l/m 0 min 0 min 54 W/m 3,2 km/h (1 Bft) 89,36 %
14.05.2022 07:48 11,1 C 11,1 C 7,8 C 83 % 1021,8 hPa 0,0 l/m 0 min 0 min 55 W/m 6,4 km/h (2 Bft) 97,87 %
14.05.2022 07:50 11,2 C 11,1 C 7,8 C 83 % 1021,8 hPa 0,0 l/m 0 min 0 min 56 W/m 6,4 km/h (2 Bft) 97,87 %
14.05.2022 07:52 11,3 C 11,1 C 7,8 C 83 % 1021,8 hPa 0,0 l/m 0 min 0 min 58 W/m 6,4 km/h (2 Bft) 97,87 %
14.05.2022 07:54 11,3 C 11,1 C 7,8 C 83 % 1021,9 hPa 0,0 l/m 0 min 0 min 60 W/m 9,7 km/h (2 Bft) 95,74 %
14.05.2022 07:56 11,3 C 11,1 C 7,8 C 83 % 1021,9 hPa 0,0 l/m 0 min 0 min 69 W/m 9,7 km/h (2 Bft) 95,65 %
14.05.2022 07:58 11,4 C 11,1 C 7,8 C 82 % 1021,9 hPa 0,0 l/m 2 min 0 min 169 W/m 12,9 km/h (3 Bft) 95,74 %
14.05.2022 08:00 11,4 C 11,1 C 7,8 C 83 % 1021,9 hPa 0,0 l/m 2 min 0 min 249 W/m 3,2 km/h (1 Bft) 95,74 %
14.05.2022 08:02 11,5 C 11,7 C 8,3 C 83 % 1021,9 hPa 0,0 l/m 2 min 0 min 259 W/m 9,7 km/h (2 Bft) 95,74 %
14.05.2022 08:04 11,6 C 11,7 C 8,3 C 83 % 1021,9 hPa 0,0 l/m 2 min 0 min 239 W/m 6,4 km/h (2 Bft) 97,87 %
14.05.2022 08:06 11,6 C 11,7 C 8,3 C 83 % 1022,0 hPa 0,0 l/m 2 min 0 min 182 W/m 12,9 km/h (3 Bft) 97,87 %
14.05.2022 08:08 11,7 C 11,7 C 8,3 C 82 % 1022,0 hPa 0,0 l/m 0 min 0 min 136 W/m 6,4 km/h (2 Bft) 95,65 %
14.05.2022 08:10 11,7 C 11,7 C 8,3 C 82 % 1022,0 hPa 0,0 l/m 2 min 0 min 252 W/m 9,7 km/h (2 Bft) 95,74 %
14.05.2022 08:12 11,8 C 11,7 C 8,3 C 82 % 1022,1 hPa 0,0 l/m 2 min 0 min 287 W/m 6,4 km/h (2 Bft) 97,87 %
14.05.2022 08:14 11,8 C 12,2 C 8,3 C 82 % 1022,0 hPa 0,0 l/m 2 min 0 min 296 W/m 12,9 km/h (3 Bft) 97,87 %
14.05.2022 08:16 11,9 C 12,2 C 8,3 C 82 % 1022,0 hPa 0,0 l/m 2 min 0 min 303 W/m 9,7 km/h (2 Bft) 93,62 %
14.05.2022 08:18 11,9 C 12,8 C 8,3 C 81 % 1021,9 hPa 0,0 l/m 2 min 0 min 310 W/m 6,4 km/h (2 Bft) 95,74 %
14.05.2022 08:20 12,0 C 13,9 C 8,9 C 81 % 1021,9 hPa 0,0 l/m 2 min 0 min 316 W/m 9,7 km/h (2 Bft) 97,83 %
14.05.2022 08:22 12,1 C 14,4 C 8,9 C 81 % 1022,0 hPa 0,0 l/m 2 min 0 min 322 W/m 6,4 km/h (2 Bft) 95,74 %
14.05.2022 08:24 12,2 C 14,4 C 8,9 C 81 % 1022,0 hPa 0,0 l/m 2 min 0 min 327 W/m 12,9 km/h (3 Bft) 97,87 %
14.05.2022 08:26 12,3 C 14,4 C 8,9 C 81 % 1022,0 hPa 0,0 l/m 2 min 0 min 335 W/m 6,4 km/h (2 Bft) 95,74 %
14.05.2022 08:28 12,4 C 15,0 C 8,9 C 81 % 1022,0 hPa 0,0 l/m 2 min 0 min 339 W/m 6,4 km/h (2 Bft) 97,87 %
14.05.2022 08:30 12,5 C 15,6 C 8,9 C 81 % 1022,1 hPa 0,0 l/m 2 min 0 min 345 W/m 3,2 km/h (1 Bft) 97,92 %
14.05.2022 08:32 12,6 C 15,6 C 8,9 C 81 % 1022,1 hPa 0,0 l/m 2 min 0 min 350 W/m 6,4 km/h (2 Bft) 97,87 %
14.05.2022 08:34 12,7 C 15,6 C 8,9 C 80 % 1022,1 hPa 0,0 l/m 2 min 0 min 355 W/m 3,2 km/h (1 Bft) 97,87 %
14.05.2022 08:36 12,8 C 16,1 C 8,9 C 80 % 1022,1 hPa 0,0 l/m 2 min 0 min 361 W/m 9,7 km/h (2 Bft) 97,87 %
14.05.2022 08:38 12,9 C 16,1 C 8,9 C 80 % 1022,1 hPa 0,0 l/m 2 min 0 min 368 W/m 6,4 km/h (2 Bft) 97,83 %
14.05.2022 08:40 13,1 C 16,7 C 9,4 C 79 % 1022,1 hPa 0,0 l/m 2 min 0 min 374 W/m 12,9 km/h (3 Bft) 97,87 %
14.05.2022 08:42 13,1 C 16,1 C 9,4 C 79 % 1022,2 hPa 0,0 l/m 2 min 0 min 380 W/m 9,7 km/h (2 Bft) 97,87 %
14.05.2022 08:44 13,2 C 16,7 C 9,4 C 79 % 1022,1 hPa 0,0 l/m 2 min 0 min 389 W/m 16,1 km/h (3 Bft) 97,87 %
14.05.2022 08:46 13,2 C 17,2 C 9,4 C 79 % 1022,1 hPa 0,0 l/m 2 min 0 min 395 W/m 3,2 km/h (1 Bft) 95,74 %
14.05.2022 08:48 13,3 C 17,2 C 9,4 C 79 % 1022,2 hPa 0,0 l/m 2 min 0 min 402 W/m 3,2 km/h (1 Bft) 97,87 %
14.05.2022 08:50 13,5 C 17,2 C 9,4 C 78 % 1022,2 hPa 0,0 l/m 2 min 0 min 407 W/m 6,4 km/h (2 Bft) 97,83 %
14.05.2022 08:52 13,6 C 18,3 C 9,4 C 78 % 1022,2 hPa 0,0 l/m 2 min 0 min 412 W/m 6,4 km/h (2 Bft) 97,87 %
14.05.2022 08:54 13,7 C 18,9 C 10,0 C 78 % 1022,2 hPa 0,0 l/m 2 min 0 min 418 W/m 9,7 km/h (2 Bft) 97,87 %
14.05.2022 08:56 13,8 C 18,9 C 10,0 C 78 % 1022,3 hPa 0,0 l/m 2 min 0 min 424 W/m 9,7 km/h (2 Bft) 97,87 %
14.05.2022 08:58 13,9 C 18,9 C 10,6 C 78 % 1022,2 hPa 0,0 l/m 2 min 0 min 429 W/m 9,7 km/h (2 Bft) 97,87 %
14.05.2022 09:00 13,9 C 18,9 C 10,6 C 77 % 1022,3 hPa 0,0 l/m 2 min 0 min 434 W/m 16,1 km/h (3 Bft) 95,65 %
14.05.2022 09:02 14,1 C 20,0 C 11,1 C 77 % 1022,3 hPa 0,0 l/m 2 min 0 min 441 W/m 12,9 km/h (3 Bft) 97,87 %
14.05.2022 09:04 14,3 C 20,0 C 11,1 C 77 % 1022,3 hPa 0,0 l/m 2 min 0 min 449 W/m 6,4 km/h (2 Bft) 97,87 %
14.05.2022 09:06 14,3 C 20,6 C 11,7 C 77 % 1022,3 hPa 0,0 l/m 2 min 0 min 457 W/m 3,2 km/h (1 Bft) 97,87 %
14.05.2022 09:08 14,3 C 20,6 C 11,7 C 76 % 1022,4 hPa 0,0 l/m 2 min 0 min 462 W/m 6,4 km/h (2 Bft) 93,62 %
14.05.2022 09:10 14,3 C 20,6 C 11,7 C 76 % 1022,3 hPa 0,0 l/m 2 min 0 min 466 W/m 3,2 km/h (1 Bft) 95,74 %
14.05.2022 09:12 14,5 C 20,6 C 12,2 C 76 % 1022,3 hPa 0,0 l/m 2 min 0 min 474 W/m 16,1 km/h (3 Bft) 95,74 %
14.05.2022 09:14 14,6 C 20,6 C 12,2 C 76 % 1022,3 hPa 0,0 l/m 2 min 0 min 481 W/m 12,9 km/h (3 Bft) 93,48 %
14.05.2022 09:16 14,6 C 20,0 C 12,2 C 75 % 1022,3 hPa 0,0 l/m 2 min 0 min 485 W/m 12,9 km/h (3 Bft) 95,74 %
14.05.2022 09:18 14,7 C 20,0 C 12,2 C 75 % 1022,3 hPa 0,0 l/m 2 min 0 min 490 W/m 6,4 km/h (2 Bft) 93,62 %
14.05.2022 09:20 14,8 C 20,6 C 12,2 C 75 % 1022,3 hPa 0,0 l/m 2 min 0 min 499 W/m 9,7 km/h (2 Bft) 97,87 %
14.05.2022 09:22 14,9 C 20,6 C 12,2 C 75 % 1022,3 hPa 0,0 l/m 2 min 0 min 502 W/m 16,1 km/h (3 Bft) 97,87 %
14.05.2022 09:24 15,1 C 20,6 C 12,8 C 75 % 1022,3 hPa 0,0 l/m 2 min 0 min 510 W/m 12,9 km/h (3 Bft) 97,83 %
14.05.2022 09:26 15,2 C 21,1 C 12,8 C 75 % 1022,4 hPa 0,0 l/m 2 min 0 min 513 W/m 6,4 km/h (2 Bft) 95,74 %
14.05.2022 09:28 15,3 C 21,1 C 12,8 C 74 % 1022,4 hPa 0,0 l/m 2 min 0 min 517 W/m 3,2 km/h (1 Bft) 97,87 %
14.05.2022 09:30 15,4 C 20,6 C 12,8 C 74 % 1022,3 hPa 0,0 l/m 2 min 0 min 525 W/m 9,7 km/h (2 Bft) 95,74 %
14.05.2022 09:32 15,6 C 21,1 C 12,8 C 74 % 1022,3 hPa 0,0 l/m 2 min 0 min 532 W/m 12,9 km/h (3 Bft) 97,87 %
14.05.2022 09:34 15,6 C 21,1 C 13,3 C 73 % 1022,3 hPa 0,0 l/m 2 min 0 min 534 W/m 12,9 km/h (3 Bft) 97,87 %
14.05.2022 09:36 15,7 C 20,0 C 12,8 C 73 % 1022,3 hPa 0,0 l/m 2 min 0 min 539 W/m 9,7 km/h (2 Bft) 95,74 %
14.05.2022 09:38 15,8 C 19,4 C 12,8 C 73 % 1022,2 hPa 0,0 l/m 2 min 0 min 542 W/m 6,4 km/h (2 Bft) 97,83 %
14.05.2022 09:40 15,8 C 19,4 C 12,8 C 73 % 1022,2 hPa 0,0 l/m 2 min 0 min 552 W/m 3,2 km/h (1 Bft) 97,87 %
14.05.2022 09:42 15,9 C 20,0 C 12,8 C 73 % 1022,2 hPa 0,0 l/m 2 min 0 min 558 W/m 6,4 km/h (2 Bft) 97,87 %
14.05.2022 09:44 15,9 C 20,0 C 12,8 C 73 % 1022,2 hPa 0,0 l/m 2 min 0 min 565 W/m 3,2 km/h (1 Bft) 97,87 %
14.05.2022 09:46 16,0 C 20,0 C 12,8 C 73 % 1022,2 hPa 0,0 l/m 2 min 0 min 570 W/m 3,2 km/h (1 Bft) 97,87 %
14.05.2022 09:48 16,1 C 20,6 C 12,8 C 73 % 1022,2 hPa 0,0 l/m 2 min 0 min 572 W/m 12,9 km/h (3 Bft) 95,65 %
14.05.2022 09:50 16,2 C 20,0 C 12,8 C 73 % 1022,2 hPa 0,0 l/m 2 min 0 min 577 W/m 6,4 km/h (2 Bft) 95,74 %
14.05.2022 09:52 16,2 C 20,0 C 12,8 C 73 % 1022,2 hPa 0,0 l/m 2 min 0 min 583 W/m 6,4 km/h (2 Bft) 97,87 %
14.05.2022 09:54 16,3 C 20,6 C 13,3 C 73 % 1022,2 hPa 0,0 l/m 2 min 0 min 588 W/m 6,4 km/h (2 Bft) 97,92 %
14.05.2022 09:56 16,4 C 21,1 C 13,3 C 73 % 1022,2 hPa 0,0 l/m 2 min 0 min 594 W/m 6,4 km/h (2 Bft) 97,87 %
14.05.2022 09:58 16,6 C 21,7 C 13,3 C 73 % 1022,2 hPa 0,0 l/m 2 min 0 min 602 W/m 9,7 km/h (2 Bft) 97,87 %
14.05.2022 10:00 16,7 C 22,2 C 13,9 C 72 % 1022,2 hPa 0,0 l/m 2 min 0 min 606 W/m 9,7 km/h (2 Bft) 97,87 %
14.05.2022 10:02 16,7 C 21,1 C 13,3 C 72 % 1022,2 hPa 0,0 l/m 2 min 0 min 612 W/m 6,4 km/h (2 Bft) 97,92 %
14.05.2022 10:04 16,7 C 21,7 C 13,9 C 72 % 1022,2 hPa 0,0 l/m 2 min 0 min 617 W/m 12,9 km/h (3 Bft) 95,74 %
14.05.2022 10:06 16,7 C 21,1 C 13,9 C 72 % 1022,2 hPa 0,0 l/m 2 min 0 min 621 W/m 6,4 km/h (2 Bft) 97,87 %
14.05.2022 10:08 16,8 C 20,6 C 13,3 C 72 % 1022,2 hPa 0,0 l/m 2 min 0 min 623 W/m 9,7 km/h (2 Bft) 97,83 %
14.05.2022 10:10 16,8 C 21,7 C 13,9 C 72 % 1022,2 hPa 0,0 l/m 2 min 0 min 628 W/m 6,4 km/h (2 Bft) 97,87 %
14.05.2022 10:12 16,9 C 22,2 C 13,9 C 72 % 1022,1 hPa 0,0 l/m 2 min 0 min 636 W/m 9,7 km/h (2 Bft) 97,87 %
14.05.2022 10:14 17,1 C 22,8 C 13,9 C 71 % 1022,2 hPa 0,0 l/m 2 min 0 min 640 W/m 6,4 km/h (2 Bft) 97,87 %
14.05.2022 10:16 17,1 C 21,7 C 13,9 C 71 % 1022,2 hPa 0,0 l/m 2 min 0 min 643 W/m 12,9 km/h (3 Bft) 97,87 %
14.05.2022 10:18 17,1 C 21,1 C 13,9 C 70 % 1022,2 hPa 0,0 l/m 2 min 0 min 645 W/m 16,1 km/h (3 Bft) 97,83 %
14.05.2022 10:20 17,1 C 20,6 C 14,4 C 71 % 1022,2 hPa 0,0 l/m 2 min 0 min 654 W/m 12,9 km/h (3 Bft) 97,87 %
14.05.2022 10:22 17,0 C 20,6 C 15,0 C 71 % 1022,2 hPa 0,0 l/m 2 min 0 min 658 W/m 12,9 km/h (3 Bft) 93,62 %
14.05.2022 10:24 17,1 C 20,6 C 15,0 C 71 % 1022,2 hPa 0,0 l/m 2 min 0 min 661 W/m 6,4 km/h (2 Bft) 97,87 %
14.05.2022 10:26 17,1 C 20,0 C 15,0 C 71 % 1022,2 hPa 0,0 l/m 2 min 0 min 666 W/m 9,7 km/h (2 Bft) 95,74 %
14.05.2022 10:28 17,1 C 20,0 C 15,6 C 71 % 1022,2 hPa 0,0 l/m 2 min 0 min 677 W/m 6,4 km/h (2 Bft) 97,87 %
14.05.2022 10:30 17,1 C 19,4 C 15,0 C 71 % 1022,2 hPa 0,0 l/m 2 min 0 min 679 W/m 16,1 km/h (3 Bft) 97,87 %
14.05.2022 10:32 17,1 C 19,4 C 15,0 C 71 % 1022,2 hPa 0,0 l/m 2 min 0 min 681 W/m 16,1 km/h (3 Bft) 95,65 %
14.05.2022 10:34 17,1 C 18,9 C 14,4 C 71 % 1022,3 hPa 0,0 l/m 2 min 0 min 686 W/m 6,4 km/h (2 Bft) 100,00 %
14.05.2022 10:36 17,1 C 18,9 C 14,4 C 71 % 1022,2 hPa 0,0 l/m 2 min 0 min 692 W/m 6,4 km/h (2 Bft) 100,00 %
14.05.2022 10:38 17,1 C 19,4 C 14,4 C 71 % 1022,2 hPa 0,0 l/m 2 min 0 min 698 W/m 6,4 km/h (2 Bft) 100,00 %
14.05.2022 10:40 17,2 C 19,4 C 14,4 C 71 % 1022,2 hPa 0,0 l/m 2 min 0 min 704 W/m 12,9 km/h (3 Bft) 97,87 %
14.05.2022 10:42 17,2 C 18,9 C 15,0 C 71 % 1022,1 hPa 0,0 l/m 2 min 0 min 708 W/m 6,4 km/h (2 Bft) 97,83 %
14.05.2022 10:44 17,3 C 18,3 C 15,6 C 72 % 1022,2 hPa 0,0 l/m 2 min 0 min 713 W/m 6,4 km/h (2 Bft) 100,00 %
14.05.2022 10:46 17,3 C 18,3 C 16,1 C 72 % 1022,2 hPa 0,0 l/m 2 min 0 min 717 W/m 9,7 km/h (2 Bft) 97,87 %
14.05.2022 10:48 17,3 C 18,3 C 16,1 C 72 % 1022,2 hPa 0,0 l/m 2 min 0 min 720 W/m 9,7 km/h (2 Bft) 100,00 %
14.05.2022 10:50 17,4 C 17,8 C 16,1 C 71 % 1022,2 hPa 0,0 l/m 2 min 0 min 724 W/m 6,4 km/h (2 Bft) 97,87 %
14.05.2022 10:52 17,5 C 18,3 C 15,6 C 71 % 1022,2 hPa 0,0 l/m 2 min 0 min 727 W/m 6,4 km/h (2 Bft) 97,87 %
14.05.2022 10:54 17,6 C 18,3 C 15,6 C 71 % 1022,2 hPa 0,0 l/m 2 min 0 min 726 W/m 6,4 km/h (2 Bft) 97,83 %
14.05.2022 10:56 17,6 C 18,9 C 15,0 C 71 % 1022,2 hPa 0,0 l/m 2 min 0 min 733 W/m 12,9 km/h (3 Bft) 97,87 %
14.05.2022 10:58 17,7 C 18,9 C 15,0 C 71 % 1022,2 hPa 0,0 l/m 2 min 0 min 743 W/m 12,9 km/h (3 Bft) 100,00 %
14.05.2022 11:00 17,8 C 19,4 C 14,4 C 71 % 1022,2 hPa 0,0 l/m 2 min 0 min 745 W/m 12,9 km/h (3 Bft) 97,87 %
14.05.2022 11:02 17,9 C 20,0 C 14,4 C 71 % 1022,1 hPa 0,0 l/m 2 min 0 min 747 W/m 6,4 km/h (2 Bft) 97,87 %
14.05.2022 11:04 18,0 C 20,6 C 14,4 C 71 % 1022,2 hPa 0,0 l/m 2 min 0 min 749 W/m 6,4 km/h (2 Bft) 97,87 %
14.05.2022 11:06 18,1 C 20,6 C 14,4 C 70 % 1022,1 hPa 0,0 l/m 2 min 0 min 753 W/m 6,4 km/h (2 Bft) 97,83 %
14.05.2022 11:08 18,2 C 20,6 C 14,4 C 70 % 1022,1 hPa 0,0 l/m 2 min 0 min 758 W/m 6,4 km/h (2 Bft) 97,87 %
14.05.2022 11:10 18,3 C 21,1 C 14,4 C 70 % 1022,1 hPa 0,0 l/m 2 min 0 min 759 W/m 9,7 km/h (2 Bft) 97,87 %
14.05.2022 11:12 18,4 C 20,6 C 13,9 C 69 % 1022,1 hPa 0,0 l/m 2 min 0 min 764 W/m 3,2 km/h (1 Bft) 97,87 %
14.05.2022 11:14 18,5 C 20,6 C 14,4 C 69 % 1022,1 hPa 0,0 l/m 2 min 0 min 769 W/m 6,4 km/h (2 Bft) 97,87 %
14.05.2022 11:16 18,6 C 20,0 C 14,4 C 69 % 1022,1 hPa 0,0 l/m 2 min 0 min 774 W/m 6,4 km/h (2 Bft) 97,87 %
14.05.2022 11:18 18,7 C 20,0 C 14,4 C 69 % 1022,1 hPa 0,0 l/m 2 min 0 min 778 W/m 16,1 km/h (3 Bft) 97,83 %
14.05.2022 11:20 18,7 C 20,6 C 14,4 C 69 % 1022,1 hPa 0,0 l/m 2 min 0 min 780 W/m 16,1 km/h (3 Bft) 97,87 %
14.05.2022 11:22 18,8 C 20,0 C 14,4 C 68 % 1022,1 hPa 0,0 l/m 2 min 0 min 780 W/m 16,1 km/h (3 Bft) 97,87 %
14.05.2022 11:24 18,8 C 20,0 C 14,4 C 68 % 1022,1 hPa 0,0 l/m 2 min 0 min 783 W/m 12,9 km/h (3 Bft) 97,87 %
14.05.2022 11:26 18,9 C 20,6 C 13,9 C 68 % 1022,1 hPa 0,0 l/m 2 min 0 min 795 W/m 6,4 km/h (2 Bft) 97,87 %
14.05.2022 11:28 18,9 C 21,1 C 14,4 C 68 % 1022,1 hPa 0,0 l/m 2 min 0 min 794 W/m 6,4 km/h (2 Bft) 97,87 %
14.05.2022 11:30 18,9 C 21,1 C 14,4 C 68 % 1022,1 hPa 0,0 l/m 2 min 0 min 802 W/m 12,9 km/h (3 Bft) 97,83 %
14.05.2022 11:32 19,0 C 22,2 C 15,0 C 69 % 1022,0 hPa 0,0 l/m 2 min 0 min 804 W/m 6,4 km/h (2 Bft) 97,87 %
14.05.2022 11:34 19,1 C 22,2 C 15,0 C 68 % 1022,1 hPa 0,0 l/m 2 min 0 min 803 W/m 9,7 km/h (2 Bft) 97,87 %
14.05.2022 11:36 19,1 C 22,2 C 15,0 C 67 % 1022,1 hPa 0,0 l/m 2 min 0 min 800 W/m 6,4 km/h (2 Bft) 97,87 %
14.05.2022 11:38 19,1 C 21,7 C 15,0 C 67 % 1022,1 hPa 0,0 l/m 2 min 0 min 807 W/m 6,4 km/h (2 Bft) 97,87 %
14.05.2022 11:40 19,1 C 21,7 C 15,0 C 68 % 1022,1 hPa 0,0 l/m 2 min 0 min 808 W/m 6,4 km/h (2 Bft) 97,87 %
14.05.2022 11:42 19,1 C 21,7 C 15,0 C 68 % 1022,1 hPa 0,0 l/m 2 min 0 min 813 W/m 16,1 km/h (3 Bft) 93,48 %
14.05.2022 11:44 19,1 C 21,7 C 15,0 C 68 % 1022,0 hPa 0,0 l/m 2 min 0 min 822 W/m 12,9 km/h (3 Bft) 100,00 %
14.05.2022 11:46 19,2 C 21,7 C 15,6 C 68 % 1022,0 hPa 0,0 l/m 2 min 0 min 824 W/m 9,7 km/h (2 Bft) 100,00 %
14.05.2022 11:48 19,3 C 22,2 C 16,1 C 68 % 1022,1 hPa 0,0 l/m 2 min 0 min 827 W/m 9,7 km/h (2 Bft) 97,87 %
14.05.2022 11:50 19,4 C 21,7 C 16,1 C 67 % 1022,1 hPa 0,0 l/m 2 min 0 min 831 W/m 9,7 km/h (2 Bft) 100,00 %
14.05.2022 11:52 19,4 C 21,1 C 16,1 C 67 % 1022,0 hPa 0,0 l/m 2 min 0 min 835 W/m 19,3 km/h (3 Bft) 97,87 %
14.05.2022 11:54 19,5 C 21,7 C 16,1 C 67 % 1022,0 hPa 0,0 l/m 2 min 0 min 834 W/m 9,7 km/h (2 Bft) 100,00 %
14.05.2022 11:56 19,6 C 21,7 C 16,7 C 67 % 1022,0 hPa 0,0 l/m 2 min 0 min 835 W/m 12,9 km/h (3 Bft) 100,00 %
14.05.2022 11:58 19,7 C 22,2 C 17,2 C 67 % 1022,0 hPa 0,0 l/m 2 min 0 min 839 W/m 12,9 km/h (3 Bft) 100,00 %
14.05.2022 12:00 19,8 C 22,2 C 17,8 C 66 % 1022,0 hPa 0,0 l/m 2 min 0 min 834 W/m 22,5 km/h (4 Bft) 100,00 %
14.05.2022 12:02 19,9 C 22,2 C 17,8 C 66 % 1022,0 hPa 0,0 l/m 2 min 0 min 836 W/m 25,7 km/h (4 Bft) 100,00 %
14.05.2022 12:04 19,9 C 22,2 C 18,9 C 66 % 1022,0 hPa 0,0 l/m 2 min 0 min 850 W/m 19,3 km/h (3 Bft) 100,00 %
14.05.2022 12:07 19,9 C 22,2 C 21,1 C 66 % 1021,9 hPa 0,0 l/m 3 min 0 min 859 W/m 22,5 km/h (4 Bft) 100,00 %
14.05.2022 12:08 19,9 C 22,2 C 21,7 C 66 % 1021,9 hPa 0,0 l/m 1 min 0 min 877 W/m 6,4 km/h (2 Bft) 100,00 %
14.05.2022 12:10 20,0 C 22,2 C 22,2 C 66 % 1022,0 hPa 0,0 l/m 2 min 0 min 886 W/m 6,4 km/h (2 Bft) 100,00 %
14.05.2022 12:12 19,9 C 21,7 C 22,2 C 65 % 1022,0 hPa 0,0 l/m 2 min 0 min 879 W/m 12,9 km/h (3 Bft) 97,87 %
14.05.2022 12:14 19,9 C 22,2 C 22,8 C 66 % 1022,0 hPa 0,0 l/m 2 min 0 min 894 W/m 19,3 km/h (3 Bft) 100,00 %
14.05.2022 12:16 20,0 C 22,2 C 23,3 C 65 % 1022,0 hPa 0,0 l/m 2 min 0 min 896 W/m 16,1 km/h (3 Bft) 95,65 %
14.05.2022 12:18 20,1 C 22,2 C 24,4 C 65 % 1021,9 hPa 0,0 l/m 2 min 0 min 882 W/m 6,4 km/h (2 Bft) 100,00 %
14.05.2022 12:20 20,1 C 22,8 C 25,0 C 65 % 1021,9 hPa 0,0 l/m 2 min 0 min 896 W/m 6,4 km/h (2 Bft) 97,87 %
14.05.2022 12:22 20,2 C 23,3 C 25,6 C 66 % 1022,0 hPa 0,0 l/m 2 min 0 min 892 W/m 9,7 km/h (2 Bft) 95,74 %
14.05.2022 12:24 20,3 C 23,3 C 25,6 C 65 % 1022,0 hPa 0,0 l/m 2 min 0 min 919 W/m 12,9 km/h (3 Bft) 97,87 %
14.05.2022 12:26 20,4 C 23,3 C 25,6 C 65 % 1022,0 hPa 0,0 l/m 2 min 0 min 938 W/m 6,4 km/h (2 Bft) 97,87 %
14.05.2022 12:28 20,5 C 22,8 C 23,9 C 64 % 1021,9 hPa 0,0 l/m 2 min 0 min 794 W/m 9,7 km/h (2 Bft) 97,83 %
14.05.2022 12:30 20,4 C 21,7 C 22,2 C 64 % 1021,9 hPa 0,0 l/m 0 min 0 min 244 W/m 6,4 km/h (2 Bft) 97,87 %
14.05.2022 12:32 20,3 C 21,7 C 21,1 C 64 % 1021,9 hPa 0,0 l/m 0 min 0 min 286 W/m 6,4 km/h (2 Bft) 97,87 %
14.05.2022 12:34 20,3 C 21,7 C 22,2 C 65 % 1021,9 hPa 0,0 l/m 2 min 0 min 530 W/m 6,4 km/h (2 Bft) 97,87 %
14.05.2022 12:36 20,3 C 22,2 C 23,3 C 65 % 1021,9 hPa 0,0 l/m 2 min 0 min 1014 W/m 9,7 km/h (2 Bft) 97,87 %
14.05.2022 12:38 20,4 C 22,8 C 23,9 C 66 % 1021,9 hPa 0,0 l/m 2 min 0 min 987 W/m 9,7 km/h (2 Bft) 97,87 %
14.05.2022 12:40 20,6 C 22,8 C 23,9 C 66 % 1021,9 hPa 0,0 l/m 2 min 0 min 496 W/m 6,4 km/h (2 Bft) 95,65 %
14.05.2022 12:42 20,7 C 23,3 C 25,0 C 65 % 1021,9 hPa 0,0 l/m 2 min 0 min 977 W/m 6,4 km/h (2 Bft) 97,87 %
14.05.2022 12:44 20,8 C 23,3 C 25,0 C 64 % 1021,9 hPa 0,0 l/m 2 min 0 min 1042 W/m 12,9 km/h (3 Bft) 97,87 %
14.05.2022 12:46 20,8 C 23,3 C 25,0 C 63 % 1021,9 hPa 0,0 l/m 2 min 0 min 1045 W/m 16,1 km/h (3 Bft) 97,87 %
14.05.2022 12:48 21,0 C 23,9 C 26,1 C 64 % 1022,0 hPa 0,0 l/m 2 min 0 min 1055 W/m 12,9 km/h (3 Bft) 97,87 %
14.05.2022 12:50 21,1 C 23,3 C 24,4 C 63 % 1022,0 hPa 0,0 l/m 2 min 0 min 879 W/m 9,7 km/h (2 Bft) 97,87 %
14.05.2022 12:52 20,9 C 21,7 C 22,2 C 61 % 1021,9 hPa 0,0 l/m 0 min 0 min 272 W/m 6,4 km/h (2 Bft) 97,83 %
14.05.2022 12:54 20,7 C 21,7 C 21,7 C 61 % 1021,9 hPa 0,0 l/m 0 min 0 min 311 W/m 6,4 km/h (2 Bft) 95,74 %
14.05.2022 12:56 20,7 C 21,7 C 20,6 C 62 % 1021,9 hPa 0,0 l/m 0 min 0 min 296 W/m 6,4 km/h (2 Bft) 97,87 %
14.05.2022 12:58 20,7 C 22,2 C 20,6 C 63 % 1021,8 hPa 0,0 l/m 2 min 0 min 590 W/m 6,4 km/h (2 Bft) 97,87 %
14.05.2022 13:00 20,6 C 21,7 C 20,0 C 62 % 1021,9 hPa 0,0 l/m 2 min 0 min 662 W/m 12,9 km/h (3 Bft) 100,00 %
14.05.2022 13:02 20,5 C 21,7 C 19,4 C 62 % 1021,9 hPa 0,0 l/m 0 min 0 min 268 W/m 3,2 km/h (1 Bft) 100,00 %
14.05.2022 13:04 20,4 C 21,7 C 19,4 C 63 % 1021,9 hPa 0,0 l/m 0 min 0 min 353 W/m 12,9 km/h (3 Bft) 95,65 %
14.05.2022 13:06 20,4 C 22,2 C 18,9 C 64 % 1021,9 hPa 0,0 l/m 2 min 0 min 1030 W/m 16,1 km/h (3 Bft) 97,87 %
14.05.2022 13:08 20,6 C 22,8 C 19,4 C 64 % 1021,9 hPa 0,0 l/m 2 min 0 min 1105 W/m 6,4 km/h (2 Bft) 100,00 %
14.05.2022 13:10 20,6 C 22,8 C 18,9 C 62 % 1021,9 hPa 0,0 l/m 2 min 0 min 802 W/m 6,4 km/h (2 Bft) 100,00 %
14.05.2022 13:12 20,6 C 22,2 C 18,9 C 62 % 1022,0 hPa 0,0 l/m 0 min 0 min 383 W/m 6,4 km/h (2 Bft) 97,87 %
14.05.2022 13:14 20,6 C 22,2 C 18,9 C 63 % 1022,0 hPa 0,0 l/m 0 min 0 min 364 W/m 12,9 km/h (3 Bft) 95,74 %
14.05.2022 13:16 20,6 C 21,1 C 18,3 C 62 % 1021,9 hPa 0,0 l/m 0 min 0 min 369 W/m 6,4 km/h (2 Bft) 97,83 %
14.05.2022 13:18 20,6 C 21,1 C 18,3 C 62 % 1021,9 hPa 0,0 l/m 0 min 0 min 314 W/m 6,4 km/h (2 Bft) 97,87 %
14.05.2022 13:20 20,5 C 21,1 C 17,8 C 63 % 1021,8 hPa 0,0 l/m 0 min 0 min 296 W/m 6,4 km/h (2 Bft) 93,62 %
14.05.2022 13:22 20,4 C 21,1 C 17,8 C 64 % 1021,8 hPa 0,0 l/m 0 min 0 min 287 W/m 9,7 km/h (2 Bft) 95,74 %
14.05.2022 13:24 20,4 C 21,1 C 17,8 C 64 % 1021,9 hPa 0,0 l/m 0 min 0 min 274 W/m 9,7 km/h (2 Bft) 97,87 %
14.05.2022 13:26 20,3 C 20,6 C 17,8 C 64 % 1021,9 hPa 0,0 l/m 0 min 0 min 350 W/m 3,2 km/h (1 Bft) 95,74 %
14.05.2022 13:28 20,3 C 21,7 C 18,9 C 64 % 1021,9 hPa 0,0 l/m 0 min 0 min 374 W/m 9,7 km/h (2 Bft) 97,83 %
14.05.2022 13:30 20,3 C 21,1 C 18,3 C 64 % 1021,9 hPa 0,0 l/m 0 min 0 min 323 W/m 9,7 km/h (2 Bft) 95,74 %
14.05.2022 13:32 20,3 C 21,1 C 18,3 C 63 % 1021,8 hPa 0,0 l/m 0 min 0 min 312 W/m 3,2 km/h (1 Bft) 97,87 %
14.05.2022 13:34 20,3 C 21,1 C 18,3 C 63 % 1021,8 hPa 0,0 l/m 0 min 0 min 335 W/m 9,7 km/h (2 Bft) 97,87 %
14.05.2022 13:36 20,4 C 22,2 C 20,0 C 64 % 1021,8 hPa 0,0 l/m 2 min 0 min 777 W/m 9,7 km/h (2 Bft) 97,87 %
14.05.2022 13:38 20,4 C 22,8 C 21,7 C 64 % 1021,8 hPa 0,0 l/m 2 min 0 min 1039 W/m 6,4 km/h (2 Bft) 95,74 %
14.05.2022 13:40 20,7 C 23,9 C 23,3 C 64 % 1021,8 hPa 0,0 l/m 2 min 0 min 1044 W/m 9,7 km/h (2 Bft) 97,83 %
14.05.2022 13:42 20,8 C 23,3 C 21,7 C 63 % 1021,8 hPa 0,0 l/m 2 min 0 min 902 W/m 9,7 km/h (2 Bft) 93,62 %
14.05.2022 13:44 20,9 C 22,8 C 20,6 C 63 % 1021,8 hPa 0,0 l/m 0 min 0 min 271 W/m 6,4 km/h (2 Bft) 97,87 %
14.05.2022 13:46 20,9 C 23,3 C 20,6 C 61 % 1021,8 hPa 0,0 l/m 0 min 0 min 318 W/m 6,4 km/h (2 Bft) 95,74 %
14.05.2022 13:48 21,0 C 23,9 C 21,1 C 61 % 1021,8 hPa 0,0 l/m 2 min 0 min 1052 W/m 6,4 km/h (2 Bft) 97,87 %
14.05.2022 13:50 21,2 C 23,9 C 21,1 C 62 % 1021,8 hPa 0,0 l/m 2 min 0 min 1042 W/m 6,4 km/h (2 Bft) 97,87 %
14.05.2022 13:52 21,3 C 25,0 C 21,1 C 62 % 1021,8 hPa 0,0 l/m 2 min 0 min 1026 W/m 6,4 km/h (2 Bft) 97,83 %
14.05.2022 13:54 21,6 C 25,6 C 21,1 C 62 % 1021,8 hPa 0,0 l/m 2 min 0 min 1013 W/m 9,7 km/h (2 Bft) 97,87 %
14.05.2022 13:56 21,8 C 26,1 C 20,6 C 59 % 1021,8 hPa 0,0 l/m 2 min 0 min 1009 W/m 3,2 km/h (1 Bft) 97,87 %
14.05.2022 13:58 22,1 C 26,1 C 20,6 C 59 % 1021,8 hPa 0,0 l/m 2 min 0 min 992 W/m 9,7 km/h (2 Bft) 97,87 %
14.05.2022 14:00 22,1 C 26,1 C 20,0 C 58 % 1021,8 hPa 0,0 l/m 2 min 0 min 961 W/m 12,9 km/h (3 Bft) 95,74 %
14.05.2022 14:02 22,2 C 26,1 C 19,4 C 57 % 1021,8 hPa 0,0 l/m 2 min 0 min 965 W/m 6,4 km/h (2 Bft) 97,87 %
14.05.2022 14:04 22,2 C 25,0 C 18,9 C 56 % 1021,8 hPa 0,0 l/m 2 min 0 min 928 W/m 9,7 km/h (2 Bft) 97,83 %
14.05.2022 14:06 22,1 C 23,9 C 18,3 C 56 % 1021,8 hPa 0,0 l/m 0 min 0 min 190 W/m 16,1 km/h (3 Bft) 95,74 %
14.05.2022 14:08 21,8 C 22,8 C 18,3 C 57 % 1021,9 hPa 0,0 l/m 0 min 0 min 228 W/m 12,9 km/h (3 Bft) 97,87 %
14.05.2022 14:10 21,7 C 23,9 C 18,3 C 58 % 1021,8 hPa 0,0 l/m 2 min 0 min 642 W/m 22,5 km/h (4 Bft) 97,87 %
14.05.2022 14:12 21,7 C 24,4 C 18,3 C 57 % 1021,8 hPa 0,0 l/m 2 min 0 min 1000 W/m 16,1 km/h (3 Bft) 97,87 %
14.05.2022 14:14 21,7 C 25,0 C 17,8 C 58 % 1021,7 hPa 0,0 l/m 2 min 0 min 989 W/m 9,7 km/h (2 Bft) 97,87 %
14.05.2022 14:16 21,7 C 25,0 C 18,3 C 58 % 1021,7 hPa 0,0 l/m 2 min 0 min 964 W/m 12,9 km/h (3 Bft) 97,83 %
14.05.2022 14:18 21,9 C 25,0 C 18,3 C 58 % 1021,7 hPa 0,0 l/m 2 min 0 min 923 W/m 6,4 km/h (2 Bft) 97,87 %
14.05.2022 14:20 21,9 C 25,0 C 17,8 C 57 % 1021,7 hPa 0,0 l/m 2 min 0 min 902 W/m 6,4 km/h (2 Bft) 97,87 %
14.05.2022 14:22 21,9 C 25,0 C 17,8 C 57 % 1021,7 hPa 0,0 l/m 2 min 0 min 908 W/m 12,9 km/h (3 Bft) 97,87 %
14.05.2022 14:24 22,0 C 25,6 C 18,3 C 57 % 1021,7 hPa 0,0 l/m 2 min 0 min 957 W/m 9,7 km/h (2 Bft) 97,87 %
14.05.2022 14:26 22,2 C 26,1 C 18,3 C 58 % 1021,7 hPa 0,0 l/m 2 min 0 min 959 W/m 16,1 km/h (3 Bft) 97,87 %
14.05.2022 14:28 22,3 C 26,1 C 18,3 C 58 % 1021,7 hPa 0,0 l/m 2 min 0 min 949 W/m 12,9 km/h (3 Bft) 97,83 %
14.05.2022 14:30 22,4 C 26,1 C 18,3 C 57 % 1021,7 hPa 0,0 l/m 2 min 0 min 947 W/m 12,9 km/h (3 Bft) 97,87 %
14.05.2022 14:32 22,6 C 26,1 C 18,9 C 57 % 1021,7 hPa 0,0 l/m 2 min 0 min 953 W/m 9,7 km/h (2 Bft) 97,87 %
14.05.2022 14:34 22,6 C 26,1 C 18,3 C 55 % 1021,7 hPa 0,0 l/m 2 min 0 min 969 W/m 9,7 km/h (2 Bft) 97,87 %
14.05.2022 14:36 22,7 C 26,7 C 18,9 C 56 % 1021,7 hPa 0,0 l/m 2 min 0 min 977 W/m 9,7 km/h (2 Bft) 93,62 %
14.05.2022 14:38 22,7 C 26,1 C 18,3 C 55 % 1021,6 hPa 0,0 l/m 2 min 0 min 978 W/m 12,9 km/h (3 Bft) 97,87 %
14.05.2022 14:40 22,7 C 26,1 C 18,9 C 55 % 1021,6 hPa 0,0 l/m 2 min 0 min 973 W/m 16,1 km/h (3 Bft) 97,83 %
14.05.2022 14:42 22,8 C 25,0 C 18,3 C 54 % 1021,6 hPa 0,0 l/m 2 min 0 min 929 W/m 12,9 km/h (3 Bft) 97,87 %
14.05.2022 14:44 22,6 C 23,9 C 18,3 C 55 % 1021,6 hPa 0,0 l/m 2 min 0 min 602 W/m 9,7 km/h (2 Bft) 97,87 %
14.05.2022 14:46 22,5 C 23,9 C 18,3 C 56 % 1021,6 hPa 0,0 l/m 2 min 0 min 484 W/m 12,9 km/h (3 Bft) 97,87 %
14.05.2022 14:48 22,4 C 24,4 C 18,3 C 56 % 1021,6 hPa 0,0 l/m 2 min 0 min 851 W/m 12,9 km/h (3 Bft) 97,87 %
14.05.2022 14:50 22,4 C 24,4 C 18,3 C 56 % 1021,5 hPa 0,0 l/m 2 min 0 min 905 W/m 12,9 km/h (3 Bft) 97,87 %
14.05.2022 14:52 22,5 C 25,0 C 18,3 C 56 % 1021,5 hPa 0,0 l/m 2 min 0 min 900 W/m 19,3 km/h (3 Bft) 97,83 %
14.05.2022 14:54 22,6 C 24,4 C 18,3 C 56 % 1021,5 hPa 0,0 l/m 2 min 0 min 914 W/m 12,9 km/h (3 Bft) 97,87 %
14.05.2022 14:56 22,4 C 23,9 C 17,8 C 56 % 1021,5 hPa 0,0 l/m 0 min 0 min 307 W/m 12,9 km/h (3 Bft) 95,74 %
14.05.2022 14:58 22,2 C 23,9 C 17,8 C 56 % 1021,5 hPa 0,0 l/m 2 min 0 min 835 W/m 9,7 km/h (2 Bft) 95,74 %
14.05.2022 15:00 22,2 C 24,4 C 17,8 C 57 % 1021,5 hPa 0,0 l/m 2 min 0 min 912 W/m 6,4 km/h (2 Bft) 97,87 %
14.05.2022 15:02 22,2 C 25,0 C 17,8 C 56 % 1021,5 hPa 0,0 l/m 2 min 0 min 909 W/m 6,4 km/h (2 Bft) 97,87 %
14.05.2022 15:04 22,3 C 25,6 C 17,8 C 56 % 1021,5 hPa 0,0 l/m 2 min 0 min 895 W/m 6,4 km/h (2 Bft) 95,65 %
14.05.2022 15:06 22,4 C 26,1 C 17,8 C 56 % 1021,4 hPa 0,0 l/m 2 min 0 min 894 W/m 6,4 km/h (2 Bft) 97,87 %
14.05.2022 15:08 22,4 C 26,1 C 18,3 C 55 % 1021,4 hPa 0,0 l/m 2 min 0 min 876 W/m 12,9 km/h (3 Bft) 95,74 %
14.05.2022 15:10 22,6 C 26,1 C 18,3 C 55 % 1021,5 hPa 0,0 l/m 2 min 0 min 864 W/m 19,3 km/h (3 Bft) 97,87 %
14.05.2022 15:12 22,7 C 26,1 C 18,3 C 55 % 1021,5 hPa 0,0 l/m 2 min 0 min 858 W/m 9,7 km/h (2 Bft) 97,87 %
14.05.2022 15:14 22,8 C 25,6 C 18,3 C 55 % 1021,4 hPa 0,0 l/m 2 min 0 min 864 W/m 9,7 km/h (2 Bft) 95,74 %
14.05.2022 15:16 22,8 C 25,6 C 18,3 C 54 % 1021,3 hPa 0,0 l/m 2 min 0 min 832 W/m 12,9 km/h (3 Bft) 93,48 %
14.05.2022 15:18 22,9 C 26,1 C 18,3 C 55 % 1021,4 hPa 0,0 l/m 2 min 0 min 820 W/m 12,9 km/h (3 Bft) 95,74 %
14.05.2022 15:20 23,0 C 26,7 C 18,3 C 54 % 1021,3 hPa 0,0 l/m 2 min 0 min 840 W/m 9,7 km/h (2 Bft) 95,74 %
14.05.2022 15:22 23,1 C 26,7 C 18,3 C 54 % 1021,3 hPa 0,0 l/m 2 min 0 min 842 W/m 6,4 km/h (2 Bft) 95,74 %
14.05.2022 15:24 23,2 C 26,7 C 18,3 C 53 % 1021,3 hPa 0,0 l/m 2 min 0 min 831 W/m 9,7 km/h (2 Bft) 93,62 %
14.05.2022 15:26 23,2 C 26,7 C 18,3 C 53 % 1021,3 hPa 0,0 l/m 2 min 0 min 834 W/m 9,7 km/h (2 Bft) 95,74 %
14.05.2022 15:28 23,2 C 26,7 C 18,3 C 53 % 1021,3 hPa 0,0 l/m 2 min 0 min 840 W/m 9,7 km/h (2 Bft) 95,65 %
14.05.2022 15:30 23,2 C 26,7 C 18,3 C 53 % 1021,3 hPa 0,0 l/m 2 min 0 min 845 W/m 9,7 km/h (2 Bft) 95,74 %
14.05.2022 15:32 23,3 C 26,7 C 18,3 C 53 % 1021,3 hPa 0,0 l/m 2 min 0 min 838 W/m 12,9 km/h (3 Bft) 97,87 %
14.05.2022 15:34 23,3 C 26,7 C 18,3 C 52 % 1021,3 hPa 0,0 l/m 2 min 0 min 832 W/m 12,9 km/h (3 Bft) 97,87 %
14.05.2022 15:36 23,3 C 27,2 C 18,3 C 51 % 1021,2 hPa 0,0 l/m 2 min 0 min 823 W/m 6,4 km/h (2 Bft) 95,74 %
14.05.2022 15:38 23,4 C 27,2 C 18,3 C 51 % 1021,3 hPa 0,0 l/m 2 min 0 min 814 W/m 12,9 km/h (3 Bft) 97,83 %
14.05.2022 15:40 23,4 C 27,2 C 18,3 C 51 % 1021,3 hPa 0,0 l/m 2 min 0 min 801 W/m 12,9 km/h (3 Bft) 97,87 %
14.05.2022 15:42 23,4 C 26,7 C 18,3 C 50 % 1021,2 hPa 0,0 l/m 2 min 0 min 800 W/m 12,9 km/h (3 Bft) 97,87 %
14.05.2022 15:44 23,4 C 27,2 C 18,3 C 51 % 1021,2 hPa 0,0 l/m 2 min 0 min 794 W/m 9,7 km/h (2 Bft) 97,87 %
14.05.2022 15:46 23,4 C 27,2 C 18,3 C 51 % 1021,2 hPa 0,0 l/m 2 min 0 min 794 W/m 9,7 km/h (2 Bft) 95,74 %
14.05.2022 15:48 23,5 C 27,2 C 18,3 C 52 % 1021,2 hPa 0,0 l/m 2 min 0 min 780 W/m 9,7 km/h (2 Bft) 100,00 %
14.05.2022 15:50 23,6 C 27,8 C 18,3 C 52 % 1021,1 hPa 0,0 l/m 2 min 0 min 785 W/m 6,4 km/h (2 Bft) 95,65 %
14.05.2022 15:52 23,5 C 27,2 C 18,3 C 52 % 1021,2 hPa 0,0 l/m 2 min 0 min 756 W/m 9,7 km/h (2 Bft) 100,00 %
14.05.2022 15:54 23,5 C 27,2 C 18,9 C 52 % 1021,2 hPa 0,0 l/m 2 min 0 min 768 W/m 12,9 km/h (3 Bft) 100,00 %
14.05.2022 15:56 23,5 C 27,8 C 18,9 C 52 % 1021,1 hPa 0,0 l/m 2 min 0 min 768 W/m 9,7 km/h (2 Bft) 100,00 %
14.05.2022 15:58 23,5 C 27,8 C 18,9 C 51 % 1021,1 hPa 0,0 l/m 2 min 0 min 770 W/m 12,9 km/h (3 Bft) 95,74 %
14.05.2022 16:00 23,6 C 27,8 C 18,9 C 52 % 1021,1 hPa 0,0 l/m 2 min 0 min 771 W/m 9,7 km/h (2 Bft) 100,00 %
14.05.2022 16:02 23,6 C 28,3 C 18,9 C 52 % 1021,1 hPa 0,0 l/m 2 min 0 min 759 W/m 6,4 km/h (2 Bft) 95,65 %
14.05.2022 16:04 23,7 C 27,8 C 18,9 C 52 % 1021,1 hPa 0,0 l/m 2 min 0 min 748 W/m 6,4 km/h (2 Bft) 100,00 %
14.05.2022 16:06 23,6 C 27,8 C 18,9 C 52 % 1021,1 hPa 0,0 l/m 2 min 0 min 736 W/m 9,7 km/h (2 Bft) 100,00 %
14.05.2022 16:08 23,6 C 27,8 C 18,9 C 51 % 1021,0 hPa 0,0 l/m 2 min 0 min 749 W/m 9,7 km/h (2 Bft) 100,00 %
14.05.2022 16:10 23,6 C 28,3 C 18,9 C 52 % 1021,0 hPa 0,0 l/m 2 min 0 min 742 W/m 6,4 km/h (2 Bft) 100,00 %
14.05.2022 16:12 23,6 C 27,8 C 18,9 C 51 % 1021,0 hPa 0,0 l/m 2 min 0 min 727 W/m 12,9 km/h (3 Bft) 100,00 %
14.05.2022 16:14 23,6 C 27,8 C 18,3 C 51 % 1021,0 hPa 0,0 l/m 2 min 0 min 727 W/m 9,7 km/h (2 Bft) 100,00 %
14.05.2022 16:16 23,6 C 28,3 C 18,3 C 52 % 1021,0 hPa 0,0 l/m 2 min 0 min 739 W/m 9,7 km/h (2 Bft) 100,00 %
14.05.2022 16:18 23,6 C 28,9 C 18,9 C 53 % 1020,9 hPa 0,0 l/m 2 min 0 min 743 W/m 6,4 km/h (2 Bft) 100,00 %
14.05.2022 16:20 23,5 C 28,3 C 18,3 C 51 % 1020,9 hPa 0,0 l/m 2 min 0 min 736 W/m 9,7 km/h (2 Bft) 100,00 %
14.05.2022 16:22 23,5 C 28,3 C 18,9 C 52 % 1020,9 hPa 0,0 l/m 2 min 0 min 730 W/m 12,9 km/h (3 Bft) 100,00 %
14.05.2022 16:24 23,5 C 29,4 C 18,9 C 53 % 1020,9 hPa 0,0 l/m 2 min 0 min 722 W/m 12,9 km/h (3 Bft) 100,00 %
14.05.2022 16:26 23,6 C 28,9 C 18,9 C 52 % 1020,9 hPa 0,0 l/m 2 min 0 min 714 W/m 16,1 km/h (3 Bft) 97,83 %
14.05.2022 16:28 23,6 C 29,4 C 18,9 C 53 % 1020,9 hPa 0,0 l/m 2 min 0 min 700 W/m 9,7 km/h (2 Bft) 97,87 %
14.05.2022 16:30 23,6 C 28,9 C 18,9 C 53 % 1020,8 hPa 0,0 l/m 2 min 0 min 706 W/m 6,4 km/h (2 Bft) 100,00 %
14.05.2022 16:32 23,6 C 28,9 C 18,9 C 52 % 1020,9 hPa 0,0 l/m 2 min 0 min 702 W/m 9,7 km/h (2 Bft) 100,00 %
14.05.2022 16:34 23,6 C 28,9 C 18,9 C 53 % 1020,8 hPa 0,0 l/m 2 min 0 min 691 W/m 6,4 km/h (2 Bft) 100,00 %
14.05.2022 16:36 23,6 C 28,3 C 18,9 C 52 % 1020,8 hPa 0,0 l/m 2 min 0 min 679 W/m 6,4 km/h (2 Bft) 98,31 %
14.05.2022 16:38 23,6 C 29,4 C 19,4 C 53 % 1020,7 hPa 0,0 l/m 2 min 0 min 676 W/m 9,7 km/h (2 Bft) 100,00 %
14.05.2022 16:40 23,6 C 28,9 C 18,9 C 52 % 1020,7 hPa 0,0 l/m 2 min 0 min 678 W/m 9,7 km/h (2 Bft) 100,00 %
14.05.2022 16:42 23,6 C 28,9 C 19,4 C 52 % 1020,8 hPa 0,0 l/m 2 min 0 min 678 W/m 9,7 km/h (2 Bft) 100,00 %
14.05.2022 16:44 23,6 C 28,9 C 19,4 C 51 % 1020,8 hPa 0,0 l/m 2 min 0 min 670 W/m 9,7 km/h (2 Bft) 97,87 %
14.05.2022 16:46 23,6 C 29,4 C 18,9 C 51 % 1020,7 hPa 0,0 l/m 2 min 0 min 661 W/m 6,4 km/h (2 Bft) 93,62 %
14.05.2022 16:48 23,6 C 28,9 C 18,9 C 52 % 1020,7 hPa 0,0 l/m 2 min 0 min 645 W/m 12,9 km/h (3 Bft) 100,00 %
14.05.2022 16:50 23,7 C 27,8 C 18,9 C 54 % 1020,7 hPa 0,0 l/m 2 min 0 min 640 W/m 9,7 km/h (2 Bft) 100,00 %
14.05.2022 16:52 23,6 C 26,1 C 18,9 C 52 % 1020,7 hPa 0,0 l/m 2 min 0 min 640 W/m 12,9 km/h (3 Bft) 100,00 %
14.05.2022 16:54 23,6 C 25,0 C 18,9 C 52 % 1020,7 hPa 0,0 l/m 0 min 0 min 157 W/m 6,4 km/h (2 Bft) 95,74 %
14.05.2022 16:56 23,5 C 26,7 C 18,3 C 53 % 1020,7 hPa 0,0 l/m 0 min 0 min 240 W/m 6,4 km/h (2 Bft) 100,00 %
14.05.2022 16:58 23,4 C 27,2 C 18,3 C 51 % 1020,7 hPa 0,0 l/m 2 min 0 min 627 W/m 12,9 km/h (3 Bft) 97,87 %
14.05.2022 17:00 23,4 C 27,2 C 18,3 C 51 % 1020,6 hPa 0,0 l/m 2 min 0 min 628 W/m 19,3 km/h (3 Bft) 95,65 %
14.05.2022 17:02 23,4 C 28,3 C 18,9 C 52 % 1020,6 hPa 0,0 l/m 2 min 0 min 630 W/m 6,4 km/h (2 Bft) 95,74 %
14.05.2022 17:04 23,4 C 27,8 C 18,9 C 52 % 1020,6 hPa 0,0 l/m 2 min 0 min 604 W/m 6,4 km/h (2 Bft) 97,87 %
14.05.2022 17:06 23,4 C 28,3 C 18,9 C 52 % 1020,5 hPa 0,0 l/m 2 min 0 min 578 W/m 9,7 km/h (2 Bft) 98,31 %
14.05.2022 17:08 23,4 C 28,3 C 18,9 C 52 % 1020,5 hPa 0,0 l/m 2 min 0 min 604 W/m 16,1 km/h (3 Bft) 97,14 %
14.05.2022 17:10 23,4 C 28,3 C 18,9 C 52 % 1020,5 hPa 0,0 l/m 2 min 0 min 608 W/m 9,7 km/h (2 Bft) 95,74 %
14.05.2022 17:12 23,4 C 28,3 C 19,4 C 52 % 1020,6 hPa 0,0 l/m 2 min 0 min 606 W/m 9,7 km/h (2 Bft) 97,83 %
14.05.2022 17:14 23,4 C 27,8 C 18,9 C 51 % 1020,6 hPa 0,0 l/m 2 min 0 min 599 W/m 12,9 km/h (3 Bft) 97,87 %
14.05.2022 17:16 23,4 C 27,8 C 19,4 C 52 % 1020,5 hPa 0,0 l/m 2 min 0 min 577 W/m 12,9 km/h (3 Bft) 91,49 %
14.05.2022 17:18 23,5 C 28,9 C 19,4 C 52 % 1020,5 hPa 0,0 l/m 2 min 0 min 580 W/m 6,4 km/h (2 Bft) 95,74 %
14.05.2022 17:20 23,6 C 28,9 C 19,4 C 51 % 1020,5 hPa 0,0 l/m 2 min 0 min 586 W/m 6,4 km/h (2 Bft) 95,74 %
14.05.2022 17:22 23,7 C 28,9 C 19,4 C 51 % 1020,5 hPa 0,0 l/m 2 min 0 min 585 W/m 6,4 km/h (2 Bft) 93,62 %
14.05.2022 17:24 23,8 C 30,0 C 19,4 C 51 % 1020,5 hPa 0,0 l/m 2 min 0 min 577 W/m 6,4 km/h (2 Bft) 93,48 %
14.05.2022 17:26 23,7 C 30,0 C 19,4 C 51 % 1020,5 hPa 0,0 l/m 2 min 0 min 577 W/m 3,2 km/h (1 Bft) 91,49 %
14.05.2022 17:28 23,7 C 29,4 C 19,4 C 49 % 1020,5 hPa 0,0 l/m 2 min 0 min 573 W/m 9,7 km/h (2 Bft) 93,62 %
14.05.2022 17:30 23,7 C 30,0 C 19,4 C 50 % 1020,4 hPa 0,0 l/m 2 min 0 min 563 W/m 3,2 km/h (1 Bft) 91,49 %
14.05.2022 17:32 23,8 C 30,0 C 19,4 C 49 % 1020,4 hPa 0,0 l/m 2 min 0 min 555 W/m 6,4 km/h (2 Bft) 91,49 %
14.05.2022 17:34 23,9 C 30,0 C 19,4 C 48 % 1020,5 hPa 0,0 l/m 2 min 0 min 558 W/m 3,2 km/h (1 Bft) 93,62 %
14.05.2022 17:36 23,9 C 30,0 C 19,4 C 49 % 1020,4 hPa 0,0 l/m 2 min 0 min 533 W/m 9,7 km/h (2 Bft) 93,48 %
14.05.2022 17:38 23,9 C 28,9 C 19,4 C 49 % 1020,5 hPa 0,0 l/m 2 min 0 min 499 W/m 6,4 km/h (2 Bft) 93,62 %
14.05.2022 17:40 23,9 C 28,9 C 19,4 C 50 % 1020,5 hPa 0,0 l/m 2 min 0 min 484 W/m 3,2 km/h (1 Bft) 91,49 %
14.05.2022 17:42 23,9 C 28,3 C 19,4 C 50 % 1020,5 hPa 0,0 l/m 2 min 0 min 463 W/m 12,9 km/h (3 Bft) 93,62 %
14.05.2022 17:44 23,8 C 27,2 C 19,4 C 50 % 1020,5 hPa 0,0 l/m 2 min 0 min 470 W/m 6,4 km/h (2 Bft) 91,49 %
14.05.2022 17:46 23,7 C 27,8 C 19,4 C 50 % 1020,4 hPa 0,0 l/m 2 min 0 min 490 W/m 6,4 km/h (2 Bft) 93,62 %
14.05.2022 17:48 23,6 C 27,8 C 19,4 C 50 % 1020,4 hPa 0,0 l/m 2 min 0 min 451 W/m 16,1 km/h (3 Bft) 93,48 %
14.05.2022 17:50 23,6 C 27,8 C 19,4 C 51 % 1020,4 hPa 0,0 l/m 2 min 0 min 422 W/m 12,9 km/h (3 Bft) 95,74 %
14.05.2022 17:52 23,7 C 27,8 C 19,4 C 50 % 1020,4 hPa 0,0 l/m 2 min 0 min 401 W/m 6,4 km/h (2 Bft) 93,62 %
14.05.2022 17:54 23,6 C 27,8 C 19,4 C 50 % 1020,4 hPa 0,0 l/m 2 min 0 min 392 W/m 6,4 km/h (2 Bft) 97,87 %
14.05.2022 17:56 23,6 C 27,8 C 19,4 C 50 % 1020,4 hPa 0,0 l/m 2 min 0 min 456 W/m 6,4 km/h (2 Bft) 95,74 %
14.05.2022 17:58 23,6 C 27,2 C 19,4 C 51 % 1020,4 hPa 0,0 l/m 2 min 0 min 417 W/m 6,4 km/h (2 Bft) 93,48 %
14.05.2022 18:00 23,5 C 27,8 C 19,4 C 52 % 1020,3 hPa 0,0 l/m 2 min 0 min 417 W/m 12,9 km/h (3 Bft) 97,87 %
14.05.2022 18:02 23,5 C 26,7 C 19,4 C 51 % 1020,4 hPa 0,0 l/m 2 min 0 min 391 W/m 6,4 km/h (2 Bft) 95,74 %
14.05.2022 18:04 23,5 C 27,2 C 19,4 C 52 % 1020,4 hPa 0,0 l/m 2 min 0 min 392 W/m 3,2 km/h (1 Bft) 97,87 %
14.05.2022 18:07 23,6 C 28,3 C 19,4 C 51 % 1020,4 hPa 0,0 l/m 3 min 0 min 419 W/m 6,4 km/h (2 Bft) 98,78 %
14.05.2022 18:08 23,6 C 28,3 C 19,4 C 52 % 1020,4 hPa 0,0 l/m 1 min 0 min 449 W/m 3,2 km/h (1 Bft) 100,00 %
14.05.2022 18:10 23,6 C 28,9 C 19,4 C 52 % 1020,4 hPa 0,0 l/m 2 min 0 min 439 W/m 6,4 km/h (2 Bft) 97,87 %
14.05.2022 18:12 23,6 C 28,3 C 19,4 C 51 % 1020,4 hPa 0,0 l/m 2 min 0 min 451 W/m 9,7 km/h (2 Bft) 100,00 %
14.05.2022 18:14 23,7 C 28,9 C 20,0 C 50 % 1020,3 hPa 0,0 l/m 2 min 0 min 425 W/m 6,4 km/h (2 Bft) 100,00 %
14.05.2022 18:16 23,7 C 28,9 C 19,4 C 50 % 1020,2 hPa 0,0 l/m 2 min 0 min 390 W/m 6,4 km/h (2 Bft) 100,00 %
14.05.2022 18:18 23,7 C 27,2 C 19,4 C 51 % 1020,3 hPa 0,0 l/m 2 min 0 min 258 W/m 3,2 km/h (1 Bft) 97,87 %
14.05.2022 18:20 23,7 C 27,8 C 19,4 C 51 % 1020,3 hPa 0,0 l/m 2 min 0 min 223 W/m 3,2 km/h (1 Bft) 100,00 %
14.05.2022 18:22 23,8 C 28,3 C 19,4 C 51 % 1020,2 hPa 0,0 l/m 2 min 0 min 403 W/m 6,4 km/h (2 Bft) 100,00 %
14.05.2022 18:24 23,8 C 28,9 C 20,0 C 50 % 1020,2 hPa 0,0 l/m 2 min 0 min 397 W/m 9,7 km/h (2 Bft) 100,00 %
14.05.2022 18:26 23,9 C 29,4 C 20,0 C 50 % 1020,2 hPa 0,0 l/m 2 min 0 min 390 W/m 3,2 km/h (1 Bft) 100,00 %
14.05.2022 18:28 23,9 C 28,9 C 19,4 C 50 % 1020,1 hPa 0,0 l/m 2 min 0 min 376 W/m 3,2 km/h (1 Bft) 100,00 %
14.05.2022 18:30 23,9 C 28,9 C 19,4 C 51 % 1020,2 hPa 0,0 l/m 2 min 0 min 364 W/m 3,2 km/h (1 Bft) 100,00 %
14.05.2022 18:32 23,8 C 28,3 C 19,4 C 49 % 1020,2 hPa 0,0 l/m 2 min 0 min 354 W/m 3,2 km/h (1 Bft) 100,00 %
14.05.2022 18:34 23,8 C 28,3 C 19,4 C 50 % 1020,2 hPa 0,0 l/m 2 min 0 min 358 W/m 6,4 km/h (2 Bft) 97,83 %
14.05.2022 18:36 23,8 C 28,3 C 19,4 C 50 % 1020,2 hPa 0,0 l/m 2 min 0 min 357 W/m 6,4 km/h (2 Bft) 100,00 %
14.05.2022 18:38 23,7 C 28,3 C 19,4 C 50 % 1020,2 hPa 0,0 l/m 2 min 0 min 349 W/m 6,4 km/h (2 Bft) 100,00 %
14.05.2022 18:40 23,7 C 28,9 C 19,4 C 50 % 1020,1 hPa 0,0 l/m 2 min 0 min 344 W/m 6,4 km/h (2 Bft) 100,00 %
14.05.2022 18:42 23,7 C 28,9 C 19,4 C 49 % 1020,1 hPa 0,0 l/m 2 min 0 min 338 W/m 6,4 km/h (2 Bft) 100,00 %
14.05.2022 18:44 23,7 C 28,9 C 18,9 C 49 % 1020,1 hPa 0,0 l/m 2 min 0 min 336 W/m 6,4 km/h (2 Bft) 100,00 %
14.05.2022 18:46 23,7 C 28,3 C 18,9 C 50 % 1020,1 hPa 0,0 l/m 2 min 0 min 315 W/m 6,4 km/h (2 Bft) 100,00 %
14.05.2022 18:48 23,7 C 28,3 C 18,9 C 50 % 1020,1 hPa 0,0 l/m 2 min 0 min 317 W/m 3,2 km/h (1 Bft) 100,00 %
14.05.2022 18:50 23,7 C 28,3 C 18,9 C 51 % 1020,1 hPa 0,0 l/m 2 min 0 min 315 W/m 3,2 km/h (1 Bft) 100,00 %
14.05.2022 18:52 23,7 C 27,8 C 18,9 C 50 % 1020,1 hPa 0,0 l/m 2 min 0 min 301 W/m 9,7 km/h (2 Bft) 100,00 %
14.05.2022 18:54 23,6 C 27,8 C 18,9 C 51 % 1020,1 hPa 0,0 l/m 2 min 0 min 307 W/m 3,2 km/h (1 Bft) 97,87 %
14.05.2022 18:56 23,6 C 27,2 C 18,9 C 50 % 1020,1 hPa 0,0 l/m 2 min 0 min 304 W/m 6,4 km/h (2 Bft) 97,87 %
14.05.2022 18:58 23,4 C 26,7 C 18,3 C 50 % 1020,1 hPa 0,0 l/m 2 min 0 min 302 W/m 3,2 km/h (1 Bft) 100,00 %
14.05.2022 19:00 23,4 C 27,2 C 18,3 C 49 % 1020,1 hPa 0,0 l/m 2 min 0 min 301 W/m 6,4 km/h (2 Bft) 100,00 %
14.05.2022 19:02 23,4 C 27,8 C 18,3 C 51 % 1020,1 hPa 0,0 l/m 2 min 0 min 292 W/m 6,4 km/h (2 Bft) 100,00 %
14.05.2022 19:04 23,4 C 27,2 C 18,3 C 51 % 1020,1 hPa 0,0 l/m 2 min 0 min 279 W/m 6,4 km/h (2 Bft) 100,00 %
14.05.2022 19:06 23,3 C 27,2 C 18,3 C 50 % 1020,1 hPa 0,0 l/m 2 min 0 min 268 W/m 3,2 km/h (1 Bft) 100,00 %
14.05.2022 19:08 23,3 C 26,1 C 18,3 C 51 % 1020,1 hPa 0,0 l/m 2 min 0 min 254 W/m 3,2 km/h (1 Bft) 100,00 %
14.05.2022 19:10 23,3 C 25,0 C 18,3 C 51 % 1020,1 hPa 0,0 l/m 2 min 0 min 235 W/m 3,2 km/h (1 Bft) 100,00 %
14.05.2022 19:12 23,2 C 23,9 C 18,3 C 51 % 1020,1 hPa 0,0 l/m 2 min 0 min 229 W/m 6,4 km/h (2 Bft) 100,00 %
14.05.2022 19:14 23,1 C 23,9 C 18,3 C 51 % 1020,1 hPa 0,0 l/m 2 min 0 min 235 W/m 6,4 km/h (2 Bft) 97,87 %
14.05.2022 19:16 23,0 C 23,3 C 17,8 C 51 % 1020,1 hPa 0,0 l/m 2 min 0 min 245 W/m 6,4 km/h (2 Bft) 100,00 %
14.05.2022 19:18 22,9 C 23,3 C 17,8 C 52 % 1020,1 hPa 0,0 l/m 2 min 0 min 243 W/m 3,2 km/h (1 Bft) 97,87 %
14.05.2022 19:20 22,9 C 22,8 C 17,8 C 52 % 1020,1 hPa 0,0 l/m 2 min 0 min 234 W/m 6,4 km/h (2 Bft) 95,74 %
14.05.2022 19:22 22,8 C 22,8 C 17,8 C 50 % 1020,1 hPa 0,0 l/m 2 min 0 min 220 W/m 6,4 km/h (2 Bft) 97,83 %
14.05.2022 19:24 22,7 C 22,8 C 17,8 C 52 % 1020,1 hPa 0,0 l/m 2 min 0 min 213 W/m 6,4 km/h (2 Bft) 95,74 %
14.05.2022 19:26 22,7 C 22,8 C 17,8 C 53 % 1020,1 hPa 0,0 l/m 2 min 0 min 177 W/m 3,2 km/h (1 Bft) 97,87 %
14.05.2022 19:28 22,6 C 22,8 C 17,8 C 53 % 1020,1 hPa 0,0 l/m 0 min 0 min 107 W/m 3,2 km/h (1 Bft) 97,87 %
14.05.2022 19:30 22,6 C 22,2 C 17,8 C 52 % 1020,1 hPa 0,0 l/m 0 min 0 min 86 W/m 12,9 km/h (3 Bft) 97,87 %
14.05.2022 19:32 22,5 C 22,2 C 17,8 C 52 % 1020,1 hPa 0,0 l/m 0 min 0 min 82 W/m 6,4 km/h (2 Bft) 95,74 %
14.05.2022 19:34 22,4 C 22,2 C 17,8 C 52 % 1020,1 hPa 0,0 l/m 0 min 0 min 78 W/m 9,7 km/h (2 Bft) 97,83 %
14.05.2022 19:36 22,4 C 22,2 C 17,8 C 53 % 1020,1 hPa 0,0 l/m 0 min 0 min 74 W/m 6,4 km/h (2 Bft) 97,87 %
14.05.2022 19:38 22,3 C 22,2 C 17,8 C 53 % 1020,1 hPa 0,0 l/m 0 min 0 min 74 W/m 9,7 km/h (2 Bft) 97,87 %
14.05.2022 19:40 22,3 C 22,2 C 17,8 C 54 % 1020,1 hPa 0,0 l/m 0 min 0 min 74 W/m 3,2 km/h (1 Bft) 97,87 %
14.05.2022 19:42 22,2 C 21,7 C 17,8 C 53 % 1020,1 hPa 0,0 l/m 0 min 0 min 73 W/m 3,2 km/h (1 Bft) 97,87 %
14.05.2022 19:44 22,2 C 21,7 C 17,8 C 53 % 1020,1 hPa 0,0 l/m 0 min 0 min 72 W/m 3,2 km/h (1 Bft) 97,87 %
14.05.2022 19:46 22,2 C 21,7 C 17,8 C 54 % 1020,1 hPa 0,0 l/m 0 min 0 min 70 W/m 6,4 km/h (2 Bft) 97,83 %
14.05.2022 19:48 22,2 C 21,7 C 17,8 C 53 % 1020,1 hPa 0,0 l/m 0 min 0 min 68 W/m 6,4 km/h (2 Bft) 97,87 %
14.05.2022 19:50 22,2 C 21,7 C 17,8 C 54 % 1020,1 hPa 0,0 l/m 0 min 0 min 66 W/m 9,7 km/h (2 Bft) 97,87 %
14.05.2022 19:52 22,2 C 21,7 C 17,8 C 53 % 1020,1 hPa 0,0 l/m 0 min 0 min 64 W/m 6,4 km/h (2 Bft) 97,87 %
14.05.2022 19:54 22,1 C 21,7 C 17,8 C 53 % 1020,1 hPa 0,0 l/m 0 min 0 min 62 W/m 3,2 km/h (1 Bft) 97,87 %
14.05.2022 19:56 22,1 C 21,1 C 17,2 C 54 % 1020,1 hPa 0,0 l/m 0 min 0 min 61 W/m 3,2 km/h (1 Bft) 97,87 %
14.05.2022 19:58 22,1 C 21,1 C 17,2 C 53 % 1020,1 hPa 0,0 l/m 0 min 0 min 60 W/m 3,2 km/h (1 Bft) 93,48 %
14.05.2022 20:00 22,1 C 21,1 C 17,2 C 55 % 1020,1 hPa 0,0 l/m 0 min 0 min 58 W/m 6,4 km/h (2 Bft) 97,87 %
14.05.2022 20:02 22,1 C 21,1 C 17,2 C 54 % 1020,1 hPa 0,0 l/m 0 min 0 min 56 W/m 3,2 km/h (1 Bft) 97,87 %
14.05.2022 20:04 22,1 C 21,1 C 17,2 C 55 % 1020,0 hPa 0,0 l/m 0 min 0 min 54 W/m 3,2 km/h (1 Bft) 96,30 %
14.05.2022 20:06 22,1 C 21,1 C 17,2 C 55 % 1020,1 hPa 0,0 l/m 0 min 0 min 52 W/m 3,2 km/h (1 Bft) 98,00 %
14.05.2022 20:08 22,0 C 21,1 C 16,7 C 54 % 1020,0 hPa 0,0 l/m 0 min 0 min 50 W/m 3,2 km/h (1 Bft) 95,74 %
14.05.2022 20:10 21,9 C 20,6 C 16,7 C 54 % 1020,1 hPa 0,0 l/m 0 min 0 min 48 W/m 9,7 km/h (2 Bft) 95,74 %
14.05.2022 20:12 21,8 C 20,6 C 16,7 C 55 % 1020,1 hPa 0,0 l/m 0 min 0 min 46 W/m 6,4 km/h (2 Bft) 97,83 %
14.05.2022 20:14 21,8 C 20,6 C 16,7 C 56 % 1020,0 hPa 0,0 l/m 0 min 0 min 45 W/m 3,2 km/h (1 Bft) 95,74 %
14.05.2022 20:16 21,7 C 20,6 C 16,7 C 56 % 1020,1 hPa 0,0 l/m 0 min 0 min 44 W/m 3,2 km/h (1 Bft) 95,74 %
14.05.2022 20:18 21,7 C 20,6 C 16,7 C 57 % 1020,1 hPa 0,0 l/m 0 min 0 min 42 W/m 3,2 km/h (1 Bft) 95,74 %
14.05.2022 20:20 21,6 C 20,6 C 16,7 C 58 % 1020,1 hPa 0,0 l/m 0 min 0 min 41 W/m 3,2 km/h (1 Bft) 95,74 %
14.05.2022 20:22 21,6 C 20,0 C 16,1 C 57 % 1020,0 hPa 0,0 l/m 0 min 0 min 40 W/m 3,2 km/h (1 Bft) 95,74 %
14.05.2022 20:24 21,5 C 20,0 C 16,1 C 57 % 1020,0 hPa 0,0 l/m 0 min 0 min 39 W/m 6,4 km/h (2 Bft) 95,74 %
14.05.2022 20:26 21,4 C 20,0 C 16,1 C 56 % 1020,0 hPa 0,0 l/m 0 min 0 min 37 W/m 6,4 km/h (2 Bft) 95,65 %
14.05.2022 20:28 21,3 C 20,0 C 16,1 C 57 % 1020,0 hPa 0,0 l/m 0 min 0 min 36 W/m 3,2 km/h (1 Bft) 93,62 %
14.05.2022 20:30 21,2 C 20,0 C 16,1 C 57 % 1020,1 hPa 0,0 l/m 0 min 0 min 33 W/m 6,4 km/h (2 Bft) 95,74 %
14.05.2022 20:32 21,1 C 20,0 C 16,1 C 57 % 1020,1 hPa 0,0 l/m 0 min 0 min 32 W/m 3,2 km/h (1 Bft) 95,74 %
14.05.2022 20:34 21,1 C 20,0 C 16,1 C 59 % 1020,1 hPa 0,0 l/m 0 min 0 min 31 W/m 3,2 km/h (1 Bft) 95,74 %
14.05.2022 20:36 20,9 C 19,4 C 16,1 C 59 % 1020,1 hPa 0,0 l/m 0 min 0 min 30 W/m 6,4 km/h (2 Bft) 93,48 %
14.05.2022 20:38 20,8 C 19,4 C 15,6 C 59 % 1020,1 hPa 0,0 l/m 0 min 0 min 28 W/m 3,2 km/h (1 Bft) 95,74 %
14.05.2022 20:40 20,8 C 19,4 C 15,6 C 59 % 1020,1 hPa 0,0 l/m 0 min 0 min 26 W/m 3,2 km/h (1 Bft) 95,74 %
14.05.2022 20:42 20,7 C 19,4 C 15,6 C 59 % 1020,1 hPa 0,0 l/m 0 min 0 min 26 W/m 3,2 km/h (1 Bft) 95,74 %
14.05.2022 20:44 20,7 C 19,4 C 15,6 C 60 % 1020,1 hPa 0,0 l/m 0 min 0 min 25 W/m 6,4 km/h (2 Bft) 97,87 %
14.05.2022 20:46 20,6 C 19,4 C 15,6 C 59 % 1020,1 hPa 0,0 l/m 0 min 0 min 23 W/m 6,4 km/h (2 Bft) 95,74 %
14.05.2022 20:48 20,6 C 18,9 C 15,6 C 60 % 1020,2 hPa 0,0 l/m 0 min 0 min 22 W/m 6,4 km/h (2 Bft) 97,87 %
14.05.2022 20:50 20,4 C 18,9 C 15,6 C 60 % 1020,2 hPa 0,0 l/m 0 min 0 min 21 W/m 6,4 km/h (2 Bft) 95,65 %
14.05.2022 20:52 20,4 C 18,9 C 15,6 C 59 % 1020,2 hPa 0,0 l/m 0 min 0 min 19 W/m 12,9 km/h (3 Bft) 97,87 %
14.05.2022 20:54 20,3 C 18,9 C 15,6 C 60 % 1020,2 hPa 0,0 l/m 0 min 0 min 18 W/m 9,7 km/h (2 Bft) 97,87 %
14.05.2022 20:56 20,3 C 18,9 C 15,6 C 60 % 1020,2 hPa 0,0 l/m 0 min 0 min 18 W/m 6,4 km/h (2 Bft) 97,87 %
14.05.2022 20:58 20,2 C 18,9 C 15,6 C 60 % 1020,2 hPa 0,0 l/m 0 min 0 min 16 W/m 6,4 km/h (2 Bft) 100,00 %
14.05.2022 21:00 20,2 C 18,9 C 15,6 C 60 % 1020,2 hPa 0,0 l/m 0 min 0 min 14 W/m 9,7 km/h (2 Bft) 100,00 %
14.05.2022 21:02 20,1 C 18,9 C 15,0 C 60 % 1020,3 hPa 0,0 l/m 0 min 0 min 14 W/m 3,2 km/h (1 Bft) 100,00 %
14.05.2022 21:04 20,1 C 18,9 C 15,0 C 60 % 1020,3 hPa 0,0 l/m 0 min 0 min 12 W/m 6,4 km/h (2 Bft) 100,00 %
14.05.2022 21:06 20,1 C 18,9 C 15,0 C 60 % 1020,3 hPa 0,0 l/m 0 min 0 min 11 W/m 3,2 km/h (1 Bft) 100,00 %
14.05.2022 21:08 20,0 C 18,9 C 15,0 C 60 % 1020,3 hPa 0,0 l/m 0 min 0 min 11 W/m 6,4 km/h (2 Bft) 100,00 %
14.05.2022 21:10 19,9 C 18,9 C 15,0 C 60 % 1020,3 hPa 0,0 l/m 0 min 0 min 9 W/m 3,2 km/h (1 Bft) 100,00 %
14.05.2022 21:12 19,9 C 18,9 C 15,0 C 60 % 1020,3 hPa 0,0 l/m 0 min 0 min 7 W/m 6,4 km/h (2 Bft) 100,00 %
14.05.2022 21:14 19,9 C 18,9 C 15,0 C 60 % 1020,3 hPa 0,0 l/m 0 min 0 min 7 W/m 3,2 km/h (1 Bft) 100,00 %
14.05.2022 21:16 19,9 C 18,9 C 15,0 C 60 % 1020,4 hPa 0,0 l/m 0 min 0 min 5 W/m 6,4 km/h (2 Bft) 97,87 %
14.05.2022 21:18 19,9 C 18,9 C 15,0 C 60 % 1020,4 hPa 0,0 l/m 0 min 0 min 5 W/m 9,7 km/h (2 Bft) 100,00 %
14.05.2022 21:20 19,9 C 18,9 C 15,0 C 61 % 1020,4 hPa 0,0 l/m 0 min 0 min 5 W/m 6,4 km/h (2 Bft) 97,87 %
14.05.2022 21:22 19,8 C 18,9 C 15,0 C 61 % 1020,4 hPa 0,0 l/m 0 min 0 min 3 W/m 6,4 km/h (2 Bft) 95,74 %
14.05.2022 21:24 19,8 C 18,9 C 15,0 C 61 % 1020,4 hPa 0,0 l/m 0 min 0 min 0 W/m 3,2 km/h (1 Bft) 97,83 %
14.05.2022 21:26 19,8 C 18,9 C 15,0 C 61 % 1020,5 hPa 0,0 l/m 0 min 0 min 0 W/m 3,2 km/h (1 Bft) 95,74 %
14.05.2022 21:28 19,7 C 18,3 C 14,4 C 61 % 1020,4 hPa 0,0 l/m 0 min 0 min 0 W/m 6,4 km/h (2 Bft) 97,87 %
14.05.2022 21:30 19,7 C 18,3 C 14,4 C 61 % 1020,5 hPa 0,0 l/m 0 min 0 min 0 W/m 3,2 km/h (1 Bft) 95,74 %
14.05.2022 21:32 19,6 C 18,3 C 14,4 C 62 % 1020,4 hPa 0,0 l/m 0 min 0 min 0 W/m 3,2 km/h (1 Bft) 97,87 %
14.05.2022 21:34 19,6 C 18,3 C 14,4 C 62 % 1020,4 hPa 0,0 l/m 0 min 0 min 0 W/m 0,0 km/h (0 Bft) 97,87 %
14.05.2022 21:36 19,6 C 18,3 C 14,4 C 63 % 1020,4 hPa 0,0 l/m 0 min 0 min 0 W/m 3,2 km/h (1 Bft) 97,87 %
14.05.2022 21:38 19,6 C 18,3 C 14,4 C 63 % 1020,4 hPa 0,0 l/m 0 min 0 min 0 W/m 3,2 km/h (1 Bft) 97,83 %
14.05.2022 21:40 19,6 C 18,3 C 14,4 C 63 % 1020,4 hPa 0,0 l/m 0 min 0 min 0 W/m 3,2 km/h (1 Bft) 97,87 %
14.05.2022 21:42 19,5 C 18,3 C 13,9 C 63 % 1020,4 hPa 0,0 l/m 0 min 0 min 0 W/m 3,2 km/h (1 Bft) 97,87 %
14.05.2022 21:44 19,4 C 17,8 C 13,9 C 63 % 1020,4 hPa 0,0 l/m 0 min 0 min 0 W/m 0,0 km/h (0 Bft) 95,74 %
14.05.2022 21:46 19,4 C 17,8 C 13,9 C 63 % 1020,4 hPa 0,0 l/m 0 min 0 min 0 W/m 0,0 km/h (0 Bft) 97,87 %
14.05.2022 21:48 19,4 C 17,8 C 13,9 C 63 % 1020,4 hPa 0,0 l/m 0 min 0 min 0 W/m 3,2 km/h (1 Bft) 97,87 %
14.05.2022 21:50 19,3 C 17,8 C 13,9 C 63 % 1020,4 hPa 0,0 l/m 0 min 0 min 0 W/m 3,2 km/h (1 Bft) 97,83 %
14.05.2022 21:52 19,3 C 17,8 C 13,9 C 63 % 1020,5 hPa 0,0 l/m 0 min 0 min 0 W/m 0,0 km/h (0 Bft) 100,00 %
14.05.2022 21:54 19,3 C 17,8 C 13,9 C 63 % 1020,5 hPa 0,0 l/m 0 min 0 min 0 W/m 0,0 km/h (0 Bft) 97,87 %
14.05.2022 21:56 19,2 C 17,8 C 13,9 C 63 % 1020,5 hPa 0,0 l/m 0 min 0 min 0 W/m 3,2 km/h (1 Bft) 100,00 %
14.05.2022 21:58 19,2 C 17,8 C 13,9 C 63 % 1020,5 hPa 0,0 l/m 0 min 0 min 0 W/m 3,2 km/h (1 Bft) 100,00 %
14.05.2022 22:00 19,2 C 17,8 C 13,9 C 63 % 1020,5 hPa 0,0 l/m 0 min 0 min 0 W/m 3,2 km/h (1 Bft) 100,00 %
14.05.2022 22:02 19,1 C 17,8 C 13,9 C 64 % 1020,5 hPa 0,0 l/m 0 min 0 min 0 W/m 3,2 km/h (1 Bft) 97,87 %
14.05.2022 22:04 19,0 C 17,8 C 13,9 C 64 % 1020,6 hPa 0,0 l/m 0 min 0 min 0 W/m 3,2 km/h (1 Bft) 100,00 %
14.05.2022 22:06 18,9 C 17,2 C 13,3 C 65 % 1020,6 hPa 0,0 l/m 0 min 0 min 0 W/m 0,0 km/h (0 Bft) 100,00 %
14.05.2022 22:08 18,9 C 17,2 C 13,3 C 65 % 1020,6 hPa 0,0 l/m 0 min 0 min 0 W/m 3,2 km/h (1 Bft) 100,00 %
14.05.2022 22:10 18,8 C 17,2 C 13,3 C 65 % 1020,6 hPa 0,0 l/m 0 min 0 min 0 W/m 0,0 km/h (0 Bft) 100,00 %
14.05.2022 22:12 18,7 C 17,2 C 13,3 C 66 % 1020,6 hPa 0,0 l/m 0 min 0 min 0 W/m 0,0 km/h (0 Bft) 100,00 %
14.05.2022 22:14 18,7 C 16,7 C 13,3 C 66 % 1020,6 hPa 0,0 l/m 0 min 0 min 0 W/m 0,0 km/h (0 Bft) 100,00 %
14.05.2022 22:16 18,6 C 16,7 C 12,8 C 67 % 1020,6 hPa 0,0 l/m 0 min 0 min 0 W/m 0,0 km/h (0 Bft) 100,00 %
14.05.2022 22:18 18,5 C 16,7 C 12,8 C 68 % 1020,6 hPa 0,0 l/m 0 min 0 min 0 W/m 0,0 km/h (0 Bft) 100,00 %
14.05.2022 22:20 18,4 C 16,7 C 12,8 C 68 % 1020,6 hPa 0,0 l/m 0 min 0 min 0 W/m 0,0 km/h (0 Bft) 100,00 %
14.05.2022 22:22 18,3 C 16,7 C 12,8 C 68 % 1020,6 hPa 0,0 l/m 0 min 0 min 0 W/m 0,0 km/h (0 Bft) 100,00 %
14.05.2022 22:24 18,2 C 16,7 C 12,8 C 69 % 1020,6 hPa 0,0 l/m 0 min 0 min 0 W/m 0,0 km/h (0 Bft) 100,00 %
14.05.2022 22:26 18,2 C 16,1 C 12,8 C 70 % 1020,6 hPa 0,0 l/m 0 min 0 min 0 W/m 0,0 km/h (0 Bft) 100,00 %
14.05.2022 22:28 18,1 C 16,1 C 12,2 C 70 % 1020,7 hPa 0,0 l/m 0 min 0 min 0 W/m 0,0 km/h (0 Bft) 100,00 %
14.05.2022 22:30 18,0 C 16,1 C 12,2 C 70 % 1020,7 hPa 0,0 l/m 0 min 0 min 0 W/m 0,0 km/h (0 Bft) 100,00 %
14.05.2022 22:32 17,9 C 16,1 C 12,2 C 70 % 1020,7 hPa 0,0 l/m 0 min 0 min 0 W/m 0,0 km/h (0 Bft) 100,00 %
14.05.2022 22:34 17,8 C 16,1 C 12,2 C 70 % 1020,7 hPa 0,0 l/m 0 min 0 min 0 W/m 0,0 km/h (0 Bft) 97,87 %
14.05.2022 22:36 17,8 C 16,1 C 12,2 C 71 % 1020,6 hPa 0,0 l/m 0 min 0 min 0 W/m 0,0 km/h (0 Bft) 95,74 %
14.05.2022 22:38 17,7 C 16,1 C 12,2 C 71 % 1020,7 hPa 0,0 l/m 0 min 0 min 0 W/m 0,0 km/h (0 Bft) 100,00 %
14.05.2022 22:40 17,7 C 16,1 C 12,2 C 71 % 1020,7 hPa 0,0 l/m 0 min 0 min 0 W/m 0,0 km/h (0 Bft) 100,00 %
14.05.2022 22:42 17,6 C 15,6 C 12,2 C 71 % 1020,7 hPa 0,0 l/m 0 min 0 min 0 W/m 0,0 km/h (0 Bft) 97,87 %
14.05.2022 22:44 17,6 C 15,6 C 12,2 C 71 % 1020,7 hPa 0,0 l/m 0 min 0 min 0 W/m 0,0 km/h (0 Bft) 97,87 %
14.05.2022 22:46 17,5 C 15,6 C 12,2 C 72 % 1020,7 hPa 0,0 l/m 0 min 0 min 0 W/m 0,0 km/h (0 Bft) 97,87 %
14.05.2022 22:48 17,4 C 15,6 C 12,2 C 72 % 1020,7 hPa 0,0 l/m 0 min 0 min 0 W/m 0,0 km/h (0 Bft) 97,87 %
14.05.2022 22:50 17,4 C 15,6 C 11,7 C 73 % 1020,7 hPa 0,0 l/m 0 min 0 min 0 W/m 0,0 km/h (0 Bft) 95,74 %
14.05.2022 22:52 17,3 C 15,6 C 11,7 C 73 % 1020,7 hPa 0,0 l/m 0 min 0 min 0 W/m 0,0 km/h (0 Bft) 93,48 %
14.05.2022 22:54 17,3 C 15,6 C 11,7 C 73 % 1020,7 hPa 0,0 l/m 0 min 0 min 0 W/m 0,0 km/h (0 Bft) 95,74 %
14.05.2022 22:56 17,3 C 15,6 C 11,7 C 73 % 1020,7 hPa 0,0 l/m 0 min 0 min 0 W/m 0,0 km/h (0 Bft) 95,74 %
14.05.2022 22:58 17,2 C 15,6 C 11,7 C 73 % 1020,7 hPa 0,0 l/m 0 min 0 min 0 W/m 0,0 km/h (0 Bft) 93,62 %
14.05.2022 23:00 17,1 C 15,6 C 11,7 C 73 % 1020,7 hPa 0,0 l/m 0 min 0 min 0 W/m 0,0 km/h (0 Bft) 95,74 %
14.05.2022 23:02 17,1 C 15,6 C 11,7 C 73 % 1020,7 hPa 0,0 l/m 0 min 0 min 0 W/m 0,0 km/h (0 Bft) 91,30 %
14.05.2022 23:04 17,1 C 15,6 C 11,7 C 74 % 1020,7 hPa 0,0 l/m 0 min 0 min 0 W/m 0,0 km/h (0 Bft) 93,62 %
14.05.2022 23:06 17,0 C 15,6 C 11,7 C 74 % 1020,7 hPa 0,0 l/m 0 min 0 min 0 W/m 0,0 km/h (0 Bft) 93,62 %
14.05.2022 23:08 16,9 C 15,0 C 11,7 C 74 % 1020,7 hPa 0,0 l/m 0 min 0 min 0 W/m 0,0 km/h (0 Bft) 93,62 %
14.05.2022 23:10 16,8 C 15,0 C 11,7 C 74 % 1020,7 hPa 0,0 l/m 0 min 0 min 0 W/m 0,0 km/h (0 Bft) 93,62 %
14.05.2022 23:12 16,8 C 15,0 C 11,1 C 74 % 1020,7 hPa 0,0 l/m 0 min 0 min 0 W/m 0,0 km/h (0 Bft) 93,62 %
14.05.2022 23:14 16,7 C 15,0 C 11,1 C 75 % 1020,7 hPa 0,0 l/m 0 min 0 min 0 W/m 0,0 km/h (0 Bft) 93,48 %
14.05.2022 23:16 16,7 C 15,0 C 11,1 C 75 % 1020,7 hPa 0,0 l/m 0 min 0 min 0 W/m 0,0 km/h (0 Bft) 95,74 %
14.05.2022 23:18 16,6 C 15,0 C 11,1 C 75 % 1020,7 hPa 0,0 l/m 0 min 0 min 0 W/m 0,0 km/h (0 Bft) 93,62 %
14.05.2022 23:20 16,6 C 15,0 C 11,1 C 75 % 1020,7 hPa 0,0 l/m 0 min 0 min 0 W/m 0,0 km/h (0 Bft) 95,74 %
14.05.2022 23:22 16,4 C 15,0 C 11,1 C 75 % 1020,7 hPa 0,0 l/m 0 min 0 min 0 W/m 0,0 km/h (0 Bft) 95,74 %
14.05.2022 23:24 16,4 C 15,0 C 11,1 C 75 % 1020,7 hPa 0,0 l/m 0 min 0 min 0 W/m 0,0 km/h (0 Bft) 95,74 %
14.05.2022 23:26 16,3 C 15,0 C 11,1 C 75 % 1020,7 hPa 0,0 l/m 0 min 0 min 0 W/m 0,0 km/h (0 Bft) 93,48 %
14.05.2022 23:28 16,3 C 15,0 C 11,1 C 75 % 1020,7 hPa 0,0 l/m 0 min 0 min 0 W/m 0,0 km/h (0 Bft) 95,74 %
14.05.2022 23:30 16,3 C 15,0 C 11,1 C 76 % 1020,7 hPa 0,0 l/m 0 min 0 min 0 W/m 0,0 km/h (0 Bft) 95,74 %
14.05.2022 23:32 16,2 C 14,4 C 11,1 C 76 % 1020,7 hPa 0,0 l/m 0 min 0 min 0 W/m 0,0 km/h (0 Bft) 95,74 %
14.05.2022 23:34 16,2 C 14,4 C 11,1 C 76 % 1020,7 hPa 0,0 l/m 0 min 0 min 0 W/m 0,0 km/h (0 Bft) 97,87 %
14.05.2022 23:36 16,1 C 14,4 C 11,1 C 77 % 1020,7 hPa 0,0 l/m 0 min 0 min 0 W/m 0,0 km/h (0 Bft) 95,74 %
14.05.2022 23:38 16,1 C 14,4 C 11,1 C 76 % 1020,7 hPa 0,0 l/m 0 min 0 min 0 W/m 0,0 km/h (0 Bft) 97,83 %
14.05.2022 23:40 16,1 C 14,4 C 11,1 C 77 % 1020,7 hPa 0,0 l/m 0 min 0 min 0 W/m 0,0 km/h (0 Bft) 97,87 %
14.05.2022 23:42 16,0 C 14,4 C 11,1 C 77 % 1020,7 hPa 0,0 l/m 0 min 0 min 0 W/m 0,0 km/h (0 Bft) 95,74 %
14.05.2022 23:44 15,9 C 14,4 C 11,1 C 77 % 1020,6 hPa 0,0 l/m 0 min 0 min 0 W/m 0,0 km/h (0 Bft) 97,87 %
14.05.2022 23:46 15,9 C 14,4 C 10,6 C 77 % 1020,7 hPa 0,0 l/m 0 min 0 min 0 W/m 0,0 km/h (0 Bft) 97,92 %
14.05.2022 23:48 15,8 C 14,4 C 10,6 C 78 % 1020,7 hPa 0,0 l/m 0 min 0 min 0 W/m 0,0 km/h (0 Bft) 95,74 %
14.05.2022 23:50 15,7 C 14,4 C 10,6 C 77 % 1020,7 hPa 0,0 l/m 0 min 0 min 0 W/m 0,0 km/h (0 Bft) 97,87 %
14.05.2022 23:52 15,7 C 14,4 C 10,6 C 77 % 1020,7 hPa 0,0 l/m 0 min 0 min 0 W/m 0,0 km/h (0 Bft) 97,87 %
14.05.2022 23:54 15,6 C 13,9 C 10,6 C 78 % 1020,6 hPa 0,0 l/m 0 min 0 min 0 W/m 0,0 km/h (0 Bft) 100,00 %
14.05.2022 23:56 15,6 C 13,9 C 10,6 C 78 % 1020,6 hPa 0,0 l/m 0 min 0 min 0 W/m 0,0 km/h (0 Bft) 100,00 %
14.05.2022 23:58 15,5 C 13,9 C 10,6 C 78 % 1020,7 hPa 0,0 l/m 0 min 0 min 0 W/m 0,0 km/h (0 Bft) 100,00 %
_ Min-Zeit 06:10 04:46 05:54 17:34 20:04 - - - - 00:28 00:02
Minimum _ 10,5 C 10,0 C 6,7 C 48 % 1020,0 hPa - - - - 0,0 km/h (0 Bft) 10,53 %
_ Max-Zeit 17:34 17:24 12:48 02:26 09:08 00:00 12:07 00:00 13:08 12:02 00:08
Maximum _ 23,9 C 30,0 C 26,1 C 86 % 1022,4 hPa 0,0 l/m 3 min 0 min 1105 W/m 25,7 km/h
S-SW (4 Bft)
100,00 %
Durchschnitt _ 17,2 C 18,2 C 13,5 C 69 % 1021,2 hPa #0,0 l/m #10:36 h #0 min. 461 W/m 5,9 km/h (2 Bft) 97,43 %
© 2022 W. Hausmann